<?xml version="1.0" encoding="UTF-8" standalone="no" ?>
<gpx xmlns="http://www.topografix.com/GPX/1/1" xmlns:xsi="http://www.w3.org/2001/XMLSchema-instance" xsi:schemaLocation="http://www.topografix.com/GPX/1/1 http://www.topografix.com/GPX/1/1/gpx.xsd" version="1.1" creator="VisuGPX - https://www.visugpx.com">
  <metadata>
    <name>2014-04-25 - Hugstein, Appenthal, Buhl</name>
    <desc><![CDATA[Reconnaissance de la randonnée du 21 mai 2014, Denis Vouin]]></desc>
  </metadata>
  <trk>
    <name><![CDATA[MAI-15-14 11:11:16]]></name>
    <trkseg>
      <trkpt lat="47.9166" lon="7.19682">
        <ele>329.39</ele>
        <time>2014-05-15T05:37:46Z</time>
      </trkpt>
      <trkpt lat="47.9166" lon="7.19682">
        <ele>332.27</ele>
        <time>2014-05-15T05:38:31Z</time>
      </trkpt>
      <trkpt lat="47.91662" lon="7.19683">
        <ele>329.87</ele>
        <time>2014-05-15T05:38:59Z</time>
      </trkpt>
      <trkpt lat="47.91668" lon="7.1969">
        <ele>330.35</ele>
        <time>2014-05-15T05:39:16Z</time>
      </trkpt>
      <trkpt lat="47.91673" lon="7.19711">
        <ele>328.91</ele>
        <time>2014-05-15T05:39:31Z</time>
      </trkpt>
      <trkpt lat="47.91679" lon="7.19742">
        <ele>327.95</ele>
        <time>2014-05-15T05:39:45Z</time>
      </trkpt>
      <trkpt lat="47.91688" lon="7.19751">
        <ele>327.95</ele>
        <time>2014-05-15T05:39:51Z</time>
      </trkpt>
      <trkpt lat="47.91696" lon="7.19764">
        <ele>327.47</ele>
        <time>2014-05-15T05:40:01Z</time>
      </trkpt>
      <trkpt lat="47.91716" lon="7.19793">
        <ele>326.5</ele>
        <time>2014-05-15T05:40:16Z</time>
      </trkpt>
      <trkpt lat="47.91716" lon="7.19816">
        <ele>325.06</ele>
        <time>2014-05-15T05:40:31Z</time>
      </trkpt>
      <trkpt lat="47.91717" lon="7.1982">
        <ele>324.58</ele>
        <time>2014-05-15T05:40:35Z</time>
      </trkpt>
      <trkpt lat="47.91716" lon="7.1983">
        <ele>320.74</ele>
        <time>2014-05-15T05:40:43Z</time>
      </trkpt>
      <trkpt lat="47.91716" lon="7.19831">
        <ele>320.74</ele>
        <time>2014-05-15T05:40:44Z</time>
      </trkpt>
      <trkpt lat="47.91712" lon="7.19861">
        <ele>321.22</ele>
        <time>2014-05-15T05:41:02Z</time>
      </trkpt>
      <trkpt lat="47.9171" lon="7.19897">
        <ele>319.78</ele>
        <time>2014-05-15T05:41:17Z</time>
      </trkpt>
      <trkpt lat="47.9171" lon="7.19941">
        <ele>318.33</ele>
        <time>2014-05-15T05:41:32Z</time>
      </trkpt>
      <trkpt lat="47.91716" lon="7.19967">
        <ele>319.78</ele>
        <time>2014-05-15T05:41:46Z</time>
      </trkpt>
      <trkpt lat="47.91724" lon="7.19984">
        <ele>317.85</ele>
        <time>2014-05-15T05:41:55Z</time>
      </trkpt>
      <trkpt lat="47.91727" lon="7.19989">
        <ele>315.93</ele>
        <time>2014-05-15T05:41:58Z</time>
      </trkpt>
      <trkpt lat="47.91733" lon="7.20004">
        <ele>315.93</ele>
        <time>2014-05-15T05:42:08Z</time>
      </trkpt>
      <trkpt lat="47.91735" lon="7.20007">
        <ele>315.45</ele>
        <time>2014-05-15T05:42:10Z</time>
      </trkpt>
      <trkpt lat="47.91735" lon="7.20017">
        <ele>316.89</ele>
        <time>2014-05-15T05:42:15Z</time>
      </trkpt>
      <trkpt lat="47.91734" lon="7.20021">
        <ele>317.37</ele>
        <time>2014-05-15T05:42:17Z</time>
      </trkpt>
      <trkpt lat="47.91732" lon="7.20022">
        <ele>317.37</ele>
        <time>2014-05-15T05:42:18Z</time>
      </trkpt>
      <trkpt lat="47.91731" lon="7.20023">
        <ele>317.37</ele>
        <time>2014-05-15T05:42:19Z</time>
      </trkpt>
      <trkpt lat="47.9173" lon="7.20025">
        <ele>317.37</ele>
        <time>2014-05-15T05:42:20Z</time>
      </trkpt>
      <trkpt lat="47.91728" lon="7.20026">
        <ele>317.37</ele>
        <time>2014-05-15T05:42:21Z</time>
      </trkpt>
      <trkpt lat="47.91727" lon="7.20028">
        <ele>315.93</ele>
        <time>2014-05-15T05:42:22Z</time>
      </trkpt>
      <trkpt lat="47.91726" lon="7.20029">
        <ele>316.41</ele>
        <time>2014-05-15T05:42:23Z</time>
      </trkpt>
      <trkpt lat="47.91725" lon="7.20031">
        <ele>315.93</ele>
        <time>2014-05-15T05:42:24Z</time>
      </trkpt>
      <trkpt lat="47.91724" lon="7.20033">
        <ele>315.93</ele>
        <time>2014-05-15T05:42:25Z</time>
      </trkpt>
      <trkpt lat="47.91711" lon="7.20055">
        <ele>314.97</ele>
        <time>2014-05-15T05:42:38Z</time>
      </trkpt>
      <trkpt lat="47.91708" lon="7.20059">
        <ele>314.49</ele>
        <time>2014-05-15T05:42:41Z</time>
      </trkpt>
      <trkpt lat="47.91707" lon="7.20061">
        <ele>314.97</ele>
        <time>2014-05-15T05:42:42Z</time>
      </trkpt>
      <trkpt lat="47.91706" lon="7.20064">
        <ele>314.49</ele>
        <time>2014-05-15T05:42:43Z</time>
      </trkpt>
      <trkpt lat="47.91705" lon="7.20066">
        <ele>314.49</ele>
        <time>2014-05-15T05:42:44Z</time>
      </trkpt>
      <trkpt lat="47.91704" lon="7.20067">
        <ele>314.49</ele>
        <time>2014-05-15T05:42:45Z</time>
      </trkpt>
      <trkpt lat="47.91703" lon="7.20069">
        <ele>314.49</ele>
        <time>2014-05-15T05:42:46Z</time>
      </trkpt>
      <trkpt lat="47.91702" lon="7.20071">
        <ele>315.45</ele>
        <time>2014-05-15T05:42:47Z</time>
      </trkpt>
      <trkpt lat="47.9169" lon="7.20095">
        <ele>315.93</ele>
        <time>2014-05-15T05:43:02Z</time>
      </trkpt>
      <trkpt lat="47.91677" lon="7.20119">
        <ele>315.45</ele>
        <time>2014-05-15T05:43:17Z</time>
      </trkpt>
      <trkpt lat="47.91672" lon="7.2013">
        <ele>316.41</ele>
        <time>2014-05-15T05:43:23Z</time>
      </trkpt>
      <trkpt lat="47.91659" lon="7.20149">
        <ele>314.49</ele>
        <time>2014-05-15T05:43:37Z</time>
      </trkpt>
      <trkpt lat="47.91656" lon="7.20154">
        <ele>314.97</ele>
        <time>2014-05-15T05:43:40Z</time>
      </trkpt>
      <trkpt lat="47.91655" lon="7.20156">
        <ele>315.45</ele>
        <time>2014-05-15T05:43:41Z</time>
      </trkpt>
      <trkpt lat="47.91654" lon="7.20157">
        <ele>314.97</ele>
        <time>2014-05-15T05:43:42Z</time>
      </trkpt>
      <trkpt lat="47.91654" lon="7.20159">
        <ele>314.49</ele>
        <time>2014-05-15T05:43:43Z</time>
      </trkpt>
      <trkpt lat="47.91653" lon="7.20161">
        <ele>314.97</ele>
        <time>2014-05-15T05:43:44Z</time>
      </trkpt>
      <trkpt lat="47.91653" lon="7.20162">
        <ele>314.97</ele>
        <time>2014-05-15T05:43:45Z</time>
      </trkpt>
      <trkpt lat="47.9165" lon="7.20169">
        <ele>315.45</ele>
        <time>2014-05-15T05:43:49Z</time>
      </trkpt>
      <trkpt lat="47.91646" lon="7.20177">
        <ele>313.05</ele>
        <time>2014-05-15T05:43:55Z</time>
      </trkpt>
      <trkpt lat="47.91632" lon="7.20201">
        <ele>314.01</ele>
        <time>2014-05-15T05:44:10Z</time>
      </trkpt>
      <trkpt lat="47.91627" lon="7.20212">
        <ele>313.53</ele>
        <time>2014-05-15T05:44:16Z</time>
      </trkpt>
      <trkpt lat="47.91621" lon="7.20219">
        <ele>313.05</ele>
        <time>2014-05-15T05:44:22Z</time>
      </trkpt>
      <trkpt lat="47.91619" lon="7.20221">
        <ele>314.01</ele>
        <time>2014-05-15T05:44:23Z</time>
      </trkpt>
      <trkpt lat="47.91607" lon="7.20243">
        <ele>312.09</ele>
        <time>2014-05-15T05:44:36Z</time>
      </trkpt>
      <trkpt lat="47.91606" lon="7.20245">
        <ele>312.09</ele>
        <time>2014-05-15T05:44:37Z</time>
      </trkpt>
      <trkpt lat="47.91598" lon="7.20261">
        <ele>313.53</ele>
        <time>2014-05-15T05:44:45Z</time>
      </trkpt>
      <trkpt lat="47.91591" lon="7.20273">
        <ele>311.6</ele>
        <time>2014-05-15T05:44:53Z</time>
      </trkpt>
      <trkpt lat="47.91589" lon="7.20274">
        <ele>311.12</ele>
        <time>2014-05-15T05:44:55Z</time>
      </trkpt>
      <trkpt lat="47.91581" lon="7.20289">
        <ele>313.53</ele>
        <time>2014-05-15T05:45:08Z</time>
      </trkpt>
      <trkpt lat="47.91572" lon="7.20306">
        <ele>310.64</ele>
        <time>2014-05-15T05:45:17Z</time>
      </trkpt>
      <trkpt lat="47.91571" lon="7.20307">
        <ele>310.64</ele>
        <time>2014-05-15T05:45:18Z</time>
      </trkpt>
      <trkpt lat="47.91567" lon="7.20316">
        <ele>311.6</ele>
        <time>2014-05-15T05:45:23Z</time>
      </trkpt>
      <trkpt lat="47.91568" lon="7.20319">
        <ele>311.6</ele>
        <time>2014-05-15T05:45:24Z</time>
      </trkpt>
      <trkpt lat="47.91584" lon="7.2034">
        <ele>312.09</ele>
        <time>2014-05-15T05:45:39Z</time>
      </trkpt>
      <trkpt lat="47.9159" lon="7.20358">
        <ele>311.6</ele>
        <time>2014-05-15T05:45:46Z</time>
      </trkpt>
      <trkpt lat="47.91592" lon="7.2036">
        <ele>312.57</ele>
        <time>2014-05-15T05:45:47Z</time>
      </trkpt>
      <trkpt lat="47.91605" lon="7.20379">
        <ele>314.01</ele>
        <time>2014-05-15T05:46:01Z</time>
      </trkpt>
      <trkpt lat="47.91616" lon="7.20385">
        <ele>312.57</ele>
        <time>2014-05-15T05:46:06Z</time>
      </trkpt>
      <trkpt lat="47.91629" lon="7.20407">
        <ele>312.57</ele>
        <time>2014-05-15T05:46:20Z</time>
      </trkpt>
      <trkpt lat="47.91635" lon="7.20437">
        <ele>312.09</ele>
        <time>2014-05-15T05:46:32Z</time>
      </trkpt>
      <trkpt lat="47.91638" lon="7.20437">
        <ele>312.09</ele>
        <time>2014-05-15T05:46:34Z</time>
      </trkpt>
      <trkpt lat="47.91651" lon="7.20447">
        <ele>310.64</ele>
        <time>2014-05-15T05:46:44Z</time>
      </trkpt>
      <trkpt lat="47.91671" lon="7.20465">
        <ele>313.05</ele>
        <time>2014-05-15T05:46:59Z</time>
      </trkpt>
      <trkpt lat="47.91683" lon="7.20477">
        <ele>312.09</ele>
        <time>2014-05-15T05:47:07Z</time>
      </trkpt>
      <trkpt lat="47.917" lon="7.20485">
        <ele>312.09</ele>
        <time>2014-05-15T05:47:19Z</time>
      </trkpt>
      <trkpt lat="47.91702" lon="7.20484">
        <ele>311.6</ele>
        <time>2014-05-15T05:47:20Z</time>
      </trkpt>
      <trkpt lat="47.91705" lon="7.20471">
        <ele>312.09</ele>
        <time>2014-05-15T05:47:28Z</time>
      </trkpt>
      <trkpt lat="47.91706" lon="7.20465">
        <ele>312.09</ele>
        <time>2014-05-15T05:47:40Z</time>
      </trkpt>
      <trkpt lat="47.91707" lon="7.20466">
        <ele>313.05</ele>
        <time>2014-05-15T05:47:58Z</time>
      </trkpt>
      <trkpt lat="47.91708" lon="7.20467">
        <ele>313.05</ele>
        <time>2014-05-15T05:47:59Z</time>
      </trkpt>
      <trkpt lat="47.91717" lon="7.20486">
        <ele>312.57</ele>
        <time>2014-05-15T05:48:15Z</time>
      </trkpt>
      <trkpt lat="47.91719" lon="7.20485">
        <ele>314.01</ele>
        <time>2014-05-15T05:48:17Z</time>
      </trkpt>
      <trkpt lat="47.9173" lon="7.20486">
        <ele>313.53</ele>
        <time>2014-05-15T05:48:28Z</time>
      </trkpt>
      <trkpt lat="47.91753" lon="7.20473">
        <ele>314.49</ele>
        <time>2014-05-15T05:48:45Z</time>
      </trkpt>
      <trkpt lat="47.91776" lon="7.20464">
        <ele>315.45</ele>
        <time>2014-05-15T05:48:57Z</time>
      </trkpt>
      <trkpt lat="47.91778" lon="7.20462">
        <ele>315.45</ele>
        <time>2014-05-15T05:48:58Z</time>
      </trkpt>
      <trkpt lat="47.91779" lon="7.2046">
        <ele>315.93</ele>
        <time>2014-05-15T05:48:59Z</time>
      </trkpt>
      <trkpt lat="47.91783" lon="7.20455">
        <ele>314.49</ele>
        <time>2014-05-15T05:49:02Z</time>
      </trkpt>
      <trkpt lat="47.91793" lon="7.20444">
        <ele>315.93</ele>
        <time>2014-05-15T05:49:14Z</time>
      </trkpt>
      <trkpt lat="47.91806" lon="7.20433">
        <ele>315.45</ele>
        <time>2014-05-15T05:49:43Z</time>
      </trkpt>
      <trkpt lat="47.9182" lon="7.20413">
        <ele>315.45</ele>
        <time>2014-05-15T05:49:58Z</time>
      </trkpt>
      <trkpt lat="47.91833" lon="7.20399">
        <ele>316.89</ele>
        <time>2014-05-15T05:50:09Z</time>
      </trkpt>
      <trkpt lat="47.91838" lon="7.20394">
        <ele>316.89</ele>
        <time>2014-05-15T05:50:12Z</time>
      </trkpt>
      <trkpt lat="47.9184" lon="7.20393">
        <ele>316.89</ele>
        <time>2014-05-15T05:50:13Z</time>
      </trkpt>
      <trkpt lat="47.91857" lon="7.20379">
        <ele>317.37</ele>
        <time>2014-05-15T05:50:26Z</time>
      </trkpt>
      <trkpt lat="47.91874" lon="7.20367">
        <ele>318.81</ele>
        <time>2014-05-15T05:50:40Z</time>
      </trkpt>
      <trkpt lat="47.91894" lon="7.2036">
        <ele>319.3</ele>
        <time>2014-05-15T05:50:53Z</time>
      </trkpt>
      <trkpt lat="47.91912" lon="7.20353">
        <ele>320.26</ele>
        <time>2014-05-15T05:51:06Z</time>
      </trkpt>
      <trkpt lat="47.91919" lon="7.20353">
        <ele>321.22</ele>
        <time>2014-05-15T05:51:12Z</time>
      </trkpt>
      <trkpt lat="47.91934" lon="7.20367">
        <ele>323.62</ele>
        <time>2014-05-15T05:51:27Z</time>
      </trkpt>
      <trkpt lat="47.91948" lon="7.20384">
        <ele>326.02</ele>
        <time>2014-05-15T05:51:42Z</time>
      </trkpt>
      <trkpt lat="47.91962" lon="7.20397">
        <ele>328.91</ele>
        <time>2014-05-15T05:51:56Z</time>
      </trkpt>
      <trkpt lat="47.9197" lon="7.20402">
        <ele>329.87</ele>
        <time>2014-05-15T05:52:03Z</time>
      </trkpt>
      <trkpt lat="47.91983" lon="7.20415">
        <ele>331.79</ele>
        <time>2014-05-15T05:52:15Z</time>
      </trkpt>
      <trkpt lat="47.91996" lon="7.20431">
        <ele>333.71</ele>
        <time>2014-05-15T05:52:29Z</time>
      </trkpt>
      <trkpt lat="47.91999" lon="7.20435">
        <ele>334.68</ele>
        <time>2014-05-15T05:52:32Z</time>
      </trkpt>
      <trkpt lat="47.92" lon="7.20437">
        <ele>335.16</ele>
        <time>2014-05-15T05:52:34Z</time>
      </trkpt>
      <trkpt lat="47.92008" lon="7.20439">
        <ele>337.56</ele>
        <time>2014-05-15T05:52:48Z</time>
      </trkpt>
      <trkpt lat="47.92019" lon="7.20428">
        <ele>339.96</ele>
        <time>2014-05-15T05:53:03Z</time>
      </trkpt>
      <trkpt lat="47.92031" lon="7.20412">
        <ele>342.37</ele>
        <time>2014-05-15T05:53:19Z</time>
      </trkpt>
      <trkpt lat="47.92037" lon="7.20404">
        <ele>343.81</ele>
        <time>2014-05-15T05:53:26Z</time>
      </trkpt>
      <trkpt lat="47.92038" lon="7.20403">
        <ele>343.81</ele>
        <time>2014-05-15T05:53:27Z</time>
      </trkpt>
      <trkpt lat="47.92044" lon="7.20392">
        <ele>347.17</ele>
        <time>2014-05-15T05:53:41Z</time>
      </trkpt>
      <trkpt lat="47.9206" lon="7.20386">
        <ele>348.13</ele>
        <time>2014-05-15T05:53:54Z</time>
      </trkpt>
      <trkpt lat="47.92073" lon="7.20389">
        <ele>349.1</ele>
        <time>2014-05-15T05:54:06Z</time>
      </trkpt>
      <trkpt lat="47.92092" lon="7.20389">
        <ele>351.02</ele>
        <time>2014-05-15T05:54:22Z</time>
      </trkpt>
      <trkpt lat="47.92095" lon="7.20386">
        <ele>350.54</ele>
        <time>2014-05-15T05:54:26Z</time>
      </trkpt>
      <trkpt lat="47.92099" lon="7.20377">
        <ele>351.02</ele>
        <time>2014-05-15T05:54:33Z</time>
      </trkpt>
      <trkpt lat="47.92108" lon="7.20353">
        <ele>351.5</ele>
        <time>2014-05-15T05:54:49Z</time>
      </trkpt>
      <trkpt lat="47.92118" lon="7.20354">
        <ele>353.9</ele>
        <time>2014-05-15T05:55:05Z</time>
      </trkpt>
      <trkpt lat="47.92132" lon="7.20349">
        <ele>356.31</ele>
        <time>2014-05-15T05:55:18Z</time>
      </trkpt>
      <trkpt lat="47.92142" lon="7.2034">
        <ele>357.27</ele>
        <time>2014-05-15T05:55:29Z</time>
      </trkpt>
      <trkpt lat="47.92153" lon="7.20331">
        <ele>359.67</ele>
        <time>2014-05-15T05:55:43Z</time>
      </trkpt>
      <trkpt lat="47.92162" lon="7.20323">
        <ele>362.07</ele>
        <time>2014-05-15T05:55:56Z</time>
      </trkpt>
      <trkpt lat="47.92176" lon="7.20313">
        <ele>363.52</ele>
        <time>2014-05-15T05:56:10Z</time>
      </trkpt>
      <trkpt lat="47.92191" lon="7.20301">
        <ele>365.44</ele>
        <time>2014-05-15T05:56:25Z</time>
      </trkpt>
      <trkpt lat="47.92199" lon="7.20288">
        <ele>366.88</ele>
        <time>2014-05-15T05:56:40Z</time>
      </trkpt>
      <trkpt lat="47.92209" lon="7.20277">
        <ele>368.8</ele>
        <time>2014-05-15T05:56:54Z</time>
      </trkpt>
      <trkpt lat="47.92214" lon="7.20269">
        <ele>370.24</ele>
        <time>2014-05-15T05:57:07Z</time>
      </trkpt>
      <trkpt lat="47.92222" lon="7.20257">
        <ele>371.69</ele>
        <time>2014-05-15T05:57:19Z</time>
      </trkpt>
      <trkpt lat="47.92232" lon="7.20256">
        <ele>373.61</ele>
        <time>2014-05-15T05:57:33Z</time>
      </trkpt>
      <trkpt lat="47.92233" lon="7.20262">
        <ele>374.57</ele>
        <time>2014-05-15T05:57:38Z</time>
      </trkpt>
      <trkpt lat="47.92233" lon="7.20275">
        <ele>376.49</ele>
        <time>2014-05-15T05:57:50Z</time>
      </trkpt>
      <trkpt lat="47.92234" lon="7.20292">
        <ele>379.86</ele>
        <time>2014-05-15T05:58:05Z</time>
      </trkpt>
      <trkpt lat="47.92234" lon="7.20315">
        <ele>381.78</ele>
        <time>2014-05-15T05:58:21Z</time>
      </trkpt>
      <trkpt lat="47.92232" lon="7.20335">
        <ele>384.18</ele>
        <time>2014-05-15T05:58:39Z</time>
      </trkpt>
      <trkpt lat="47.92231" lon="7.20355">
        <ele>387.07</ele>
        <time>2014-05-15T05:58:56Z</time>
      </trkpt>
      <trkpt lat="47.9223" lon="7.20382">
        <ele>389.95</ele>
        <time>2014-05-15T05:59:13Z</time>
      </trkpt>
      <trkpt lat="47.92228" lon="7.20408">
        <ele>390.91</ele>
        <time>2014-05-15T05:59:30Z</time>
      </trkpt>
      <trkpt lat="47.92224" lon="7.20425">
        <ele>389.95</ele>
        <time>2014-05-15T05:59:42Z</time>
      </trkpt>
      <trkpt lat="47.92219" lon="7.20452">
        <ele>388.99</ele>
        <time>2014-05-15T05:59:58Z</time>
      </trkpt>
      <trkpt lat="47.92215" lon="7.2047">
        <ele>387.55</ele>
        <time>2014-05-15T06:00:11Z</time>
      </trkpt>
      <trkpt lat="47.92213" lon="7.20493">
        <ele>386.11</ele>
        <time>2014-05-15T06:00:26Z</time>
      </trkpt>
      <trkpt lat="47.92213" lon="7.20513">
        <ele>383.22</ele>
        <time>2014-05-15T06:00:40Z</time>
      </trkpt>
      <trkpt lat="47.92211" lon="7.20542">
        <ele>382.26</ele>
        <time>2014-05-15T06:00:54Z</time>
      </trkpt>
      <trkpt lat="47.92214" lon="7.20562">
        <ele>380.82</ele>
        <time>2014-05-15T06:01:06Z</time>
      </trkpt>
      <trkpt lat="47.92213" lon="7.20587">
        <ele>380.82</ele>
        <time>2014-05-15T06:01:22Z</time>
      </trkpt>
      <trkpt lat="47.92206" lon="7.20617">
        <ele>381.3</ele>
        <time>2014-05-15T06:01:36Z</time>
      </trkpt>
      <trkpt lat="47.92211" lon="7.20629">
        <ele>384.18</ele>
        <time>2014-05-15T06:01:49Z</time>
      </trkpt>
      <trkpt lat="47.92218" lon="7.20633">
        <ele>387.07</ele>
        <time>2014-05-15T06:02:05Z</time>
      </trkpt>
      <trkpt lat="47.92225" lon="7.20635">
        <ele>389.95</ele>
        <time>2014-05-15T06:02:21Z</time>
      </trkpt>
      <trkpt lat="47.92229" lon="7.20637">
        <ele>390.43</ele>
        <time>2014-05-15T06:02:37Z</time>
      </trkpt>
      <trkpt lat="47.92225" lon="7.20638">
        <ele>389.47</ele>
        <time>2014-05-15T06:02:45Z</time>
      </trkpt>
      <trkpt lat="47.92221" lon="7.20636">
        <ele>388.51</ele>
        <time>2014-05-15T06:02:58Z</time>
      </trkpt>
      <trkpt lat="47.92227" lon="7.20644">
        <ele>391.39</ele>
        <time>2014-05-15T06:03:32Z</time>
      </trkpt>
      <trkpt lat="47.92235" lon="7.20653">
        <ele>394.76</ele>
        <time>2014-05-15T06:03:46Z</time>
      </trkpt>
      <trkpt lat="47.92239" lon="7.20663">
        <ele>398.12</ele>
        <time>2014-05-15T06:04:03Z</time>
      </trkpt>
      <trkpt lat="47.92242" lon="7.20671">
        <ele>400.53</ele>
        <time>2014-05-15T06:04:19Z</time>
      </trkpt>
      <trkpt lat="47.9225" lon="7.20671">
        <ele>401.97</ele>
        <time>2014-05-15T06:04:34Z</time>
      </trkpt>
      <trkpt lat="47.92262" lon="7.20664">
        <ele>403.89</ele>
        <time>2014-05-15T06:04:50Z</time>
      </trkpt>
      <trkpt lat="47.92277" lon="7.20652">
        <ele>404.37</ele>
        <time>2014-05-15T06:05:06Z</time>
      </trkpt>
      <trkpt lat="47.92288" lon="7.20651">
        <ele>406.29</ele>
        <time>2014-05-15T06:05:22Z</time>
      </trkpt>
      <trkpt lat="47.92293" lon="7.20651">
        <ele>409.66</ele>
        <time>2014-05-15T06:05:33Z</time>
      </trkpt>
      <trkpt lat="47.92304" lon="7.20642">
        <ele>413.02</ele>
        <time>2014-05-15T06:05:53Z</time>
      </trkpt>
      <trkpt lat="47.9231" lon="7.20637">
        <ele>414.95</ele>
        <time>2014-05-15T06:06:11Z</time>
      </trkpt>
      <trkpt lat="47.92312" lon="7.20634">
        <ele>416.39</ele>
        <time>2014-05-15T06:06:42Z</time>
      </trkpt>
      <trkpt lat="47.92316" lon="7.20617">
        <ele>419.27</ele>
        <time>2014-05-15T06:07:11Z</time>
      </trkpt>
      <trkpt lat="47.92319" lon="7.20597">
        <ele>422.16</ele>
        <time>2014-05-15T06:07:27Z</time>
      </trkpt>
      <trkpt lat="47.92323" lon="7.20579">
        <ele>424.08</ele>
        <time>2014-05-15T06:07:44Z</time>
      </trkpt>
      <trkpt lat="47.9233" lon="7.20563">
        <ele>426.48</ele>
        <time>2014-05-15T06:08:00Z</time>
      </trkpt>
      <trkpt lat="47.92332" lon="7.20558">
        <ele>427.92</ele>
        <time>2014-05-15T06:08:16Z</time>
      </trkpt>
      <trkpt lat="47.92336" lon="7.20552">
        <ele>428.4</ele>
        <time>2014-05-15T06:09:14Z</time>
      </trkpt>
      <trkpt lat="47.92337" lon="7.20549">
        <ele>429.37</ele>
        <time>2014-05-15T06:09:33Z</time>
      </trkpt>
      <trkpt lat="47.92338" lon="7.2055">
        <ele>427.92</ele>
        <time>2014-05-15T06:10:13Z</time>
      </trkpt>
      <trkpt lat="47.92339" lon="7.20552">
        <ele>427.44</ele>
        <time>2014-05-15T06:10:36Z</time>
      </trkpt>
      <trkpt lat="47.92337" lon="7.20565">
        <ele>426.96</ele>
        <time>2014-05-15T06:10:51Z</time>
      </trkpt>
      <trkpt lat="47.92337" lon="7.20564">
        <ele>426.96</ele>
        <time>2014-05-15T06:11:12Z</time>
      </trkpt>
      <trkpt lat="47.92337" lon="7.20564">
        <ele>426</ele>
        <time>2014-05-15T06:11:35Z</time>
      </trkpt>
      <trkpt lat="47.92339" lon="7.20566">
        <ele>426.48</ele>
        <time>2014-05-15T06:13:50Z</time>
      </trkpt>
      <trkpt lat="47.92337" lon="7.20566">
        <ele>428.89</ele>
        <time>2014-05-15T06:16:25Z</time>
      </trkpt>
      <trkpt lat="47.92337" lon="7.20566">
        <ele>432.73</ele>
        <time>2014-05-15T06:16:29Z</time>
      </trkpt>
      <trkpt lat="47.92338" lon="7.20566">
        <ele>428.89</ele>
        <time>2014-05-15T06:16:30Z</time>
      </trkpt>
      <trkpt lat="47.9234" lon="7.20564">
        <ele>428.4</ele>
        <time>2014-05-15T06:16:34Z</time>
      </trkpt>
      <trkpt lat="47.9234" lon="7.20564">
        <ele>430.33</ele>
        <time>2014-05-15T06:16:40Z</time>
      </trkpt>
      <trkpt lat="47.92341" lon="7.20563">
        <ele>430.81</ele>
        <time>2014-05-15T06:17:03Z</time>
      </trkpt>
      <trkpt lat="47.92341" lon="7.20563">
        <ele>436.1</ele>
        <time>2014-05-15T06:17:06Z</time>
      </trkpt>
      <trkpt lat="47.92341" lon="7.20563">
        <ele>431.77</ele>
        <time>2014-05-15T06:17:07Z</time>
      </trkpt>
      <trkpt lat="47.92342" lon="7.20563">
        <ele>435.61</ele>
        <time>2014-05-15T06:17:11Z</time>
      </trkpt>
      <trkpt lat="47.92343" lon="7.20562">
        <ele>431.77</ele>
        <time>2014-05-15T06:17:12Z</time>
      </trkpt>
      <trkpt lat="47.92343" lon="7.20563">
        <ele>436.1</ele>
        <time>2014-05-15T06:17:14Z</time>
      </trkpt>
      <trkpt lat="47.92343" lon="7.20563">
        <ele>434.17</ele>
        <time>2014-05-15T06:17:15Z</time>
      </trkpt>
      <trkpt lat="47.92344" lon="7.20564">
        <ele>435.61</ele>
        <time>2014-05-15T06:17:18Z</time>
      </trkpt>
      <trkpt lat="47.92354" lon="7.20572">
        <ele>439.94</ele>
        <time>2014-05-15T06:17:26Z</time>
      </trkpt>
      <trkpt lat="47.92355" lon="7.20574">
        <ele>436.58</ele>
        <time>2014-05-15T06:17:27Z</time>
      </trkpt>
      <trkpt lat="47.92355" lon="7.20574">
        <ele>439.94</ele>
        <time>2014-05-15T06:17:29Z</time>
      </trkpt>
      <trkpt lat="47.92355" lon="7.20574">
        <ele>438.02</ele>
        <time>2014-05-15T06:17:30Z</time>
      </trkpt>
      <trkpt lat="47.92359" lon="7.20587">
        <ele>443.31</ele>
        <time>2014-05-15T06:17:48Z</time>
      </trkpt>
      <trkpt lat="47.92359" lon="7.20589">
        <ele>438.98</ele>
        <time>2014-05-15T06:17:50Z</time>
      </trkpt>
      <trkpt lat="47.92359" lon="7.20591">
        <ele>442.34</ele>
        <time>2014-05-15T06:17:51Z</time>
      </trkpt>
      <trkpt lat="47.92359" lon="7.20591">
        <ele>438.98</ele>
        <time>2014-05-15T06:17:52Z</time>
      </trkpt>
      <trkpt lat="47.92358" lon="7.20594">
        <ele>442.82</ele>
        <time>2014-05-15T06:17:56Z</time>
      </trkpt>
      <trkpt lat="47.92358" lon="7.20595">
        <ele>439.46</ele>
        <time>2014-05-15T06:17:57Z</time>
      </trkpt>
      <trkpt lat="47.92359" lon="7.20601">
        <ele>442.82</ele>
        <time>2014-05-15T06:18:00Z</time>
      </trkpt>
      <trkpt lat="47.92362" lon="7.20613">
        <ele>442.34</ele>
        <time>2014-05-15T06:18:04Z</time>
      </trkpt>
      <trkpt lat="47.92363" lon="7.20619">
        <ele>443.79</ele>
        <time>2014-05-15T06:18:07Z</time>
      </trkpt>
      <trkpt lat="47.9237" lon="7.20641">
        <ele>447.63</ele>
        <time>2014-05-15T06:18:24Z</time>
      </trkpt>
      <trkpt lat="47.9237" lon="7.20642">
        <ele>444.27</ele>
        <time>2014-05-15T06:18:25Z</time>
      </trkpt>
      <trkpt lat="47.92375" lon="7.20649">
        <ele>449.07</ele>
        <time>2014-05-15T06:18:34Z</time>
      </trkpt>
      <trkpt lat="47.92376" lon="7.2065">
        <ele>446.19</ele>
        <time>2014-05-15T06:18:35Z</time>
      </trkpt>
      <trkpt lat="47.92377" lon="7.2066">
        <ele>450.03</ele>
        <time>2014-05-15T06:18:45Z</time>
      </trkpt>
      <trkpt lat="47.92385" lon="7.20655">
        <ele>453.88</ele>
        <time>2014-05-15T06:18:56Z</time>
      </trkpt>
      <trkpt lat="47.92385" lon="7.20655">
        <ele>450.52</ele>
        <time>2014-05-15T06:18:57Z</time>
      </trkpt>
      <trkpt lat="47.92391" lon="7.20649">
        <ele>451.48</ele>
        <time>2014-05-15T06:19:04Z</time>
      </trkpt>
      <trkpt lat="47.92398" lon="7.2063">
        <ele>455.32</ele>
        <time>2014-05-15T06:19:19Z</time>
      </trkpt>
      <trkpt lat="47.92394" lon="7.20631">
        <ele>453.4</ele>
        <time>2014-05-15T06:19:36Z</time>
      </trkpt>
      <trkpt lat="47.92394" lon="7.20632">
        <ele>456.76</ele>
        <time>2014-05-15T06:19:37Z</time>
      </trkpt>
      <trkpt lat="47.92398" lon="7.20648">
        <ele>457.24</ele>
        <time>2014-05-15T06:19:54Z</time>
      </trkpt>
      <trkpt lat="47.924" lon="7.20654">
        <ele>461.57</ele>
        <time>2014-05-15T06:20:07Z</time>
      </trkpt>
      <trkpt lat="47.924" lon="7.20653">
        <ele>457.72</ele>
        <time>2014-05-15T06:20:11Z</time>
      </trkpt>
      <trkpt lat="47.924" lon="7.20653">
        <ele>459.65</ele>
        <time>2014-05-15T06:20:14Z</time>
      </trkpt>
      <trkpt lat="47.92402" lon="7.20656">
        <ele>460.13</ele>
        <time>2014-05-15T06:20:21Z</time>
      </trkpt>
      <trkpt lat="47.92406" lon="7.20664">
        <ele>461.09</ele>
        <time>2014-05-15T06:20:34Z</time>
      </trkpt>
      <trkpt lat="47.92409" lon="7.20675">
        <ele>462.53</ele>
        <time>2014-05-15T06:20:40Z</time>
      </trkpt>
      <trkpt lat="47.92414" lon="7.20694">
        <ele>464.45</ele>
        <time>2014-05-15T06:20:53Z</time>
      </trkpt>
      <trkpt lat="47.92419" lon="7.20716">
        <ele>466.86</ele>
        <time>2014-05-15T06:21:08Z</time>
      </trkpt>
      <trkpt lat="47.92422" lon="7.20732">
        <ele>468.3</ele>
        <time>2014-05-15T06:21:20Z</time>
      </trkpt>
      <trkpt lat="47.92425" lon="7.20745">
        <ele>470.22</ele>
        <time>2014-05-15T06:21:32Z</time>
      </trkpt>
      <trkpt lat="47.9243" lon="7.20762">
        <ele>472.63</ele>
        <time>2014-05-15T06:21:44Z</time>
      </trkpt>
      <trkpt lat="47.92433" lon="7.20767">
        <ele>473.59</ele>
        <time>2014-05-15T06:21:50Z</time>
      </trkpt>
      <trkpt lat="47.92439" lon="7.20783">
        <ele>475.99</ele>
        <time>2014-05-15T06:22:01Z</time>
      </trkpt>
      <trkpt lat="47.92446" lon="7.20798">
        <ele>477.91</ele>
        <time>2014-05-15T06:22:11Z</time>
      </trkpt>
      <trkpt lat="47.92455" lon="7.20815">
        <ele>480.32</ele>
        <time>2014-05-15T06:22:27Z</time>
      </trkpt>
      <trkpt lat="47.92458" lon="7.20823">
        <ele>481.76</ele>
        <time>2014-05-15T06:22:38Z</time>
      </trkpt>
      <trkpt lat="47.92457" lon="7.2083">
        <ele>482.24</ele>
        <time>2014-05-15T06:22:46Z</time>
      </trkpt>
      <trkpt lat="47.92453" lon="7.20841">
        <ele>483.2</ele>
        <time>2014-05-15T06:22:58Z</time>
      </trkpt>
      <trkpt lat="47.92449" lon="7.20845">
        <ele>484.64</ele>
        <time>2014-05-15T06:23:04Z</time>
      </trkpt>
      <trkpt lat="47.92445" lon="7.2085">
        <ele>486.08</ele>
        <time>2014-05-15T06:23:18Z</time>
      </trkpt>
      <trkpt lat="47.92444" lon="7.2085">
        <ele>488.01</ele>
        <time>2014-05-15T06:23:40Z</time>
      </trkpt>
      <trkpt lat="47.92443" lon="7.20852">
        <ele>484.16</ele>
        <time>2014-05-15T06:23:46Z</time>
      </trkpt>
      <trkpt lat="47.92445" lon="7.20859">
        <ele>487.53</ele>
        <time>2014-05-15T06:23:53Z</time>
      </trkpt>
      <trkpt lat="47.92455" lon="7.20868">
        <ele>487.53</ele>
        <time>2014-05-15T06:24:05Z</time>
      </trkpt>
      <trkpt lat="47.92464" lon="7.20865">
        <ele>490.89</ele>
        <time>2014-05-15T06:24:16Z</time>
      </trkpt>
      <trkpt lat="47.92466" lon="7.20864">
        <ele>491.85</ele>
        <time>2014-05-15T06:24:18Z</time>
      </trkpt>
      <trkpt lat="47.92466" lon="7.20864">
        <ele>488.97</ele>
        <time>2014-05-15T06:24:19Z</time>
      </trkpt>
      <trkpt lat="47.92472" lon="7.20868">
        <ele>492.33</ele>
        <time>2014-05-15T06:24:27Z</time>
      </trkpt>
      <trkpt lat="47.92489" lon="7.20861">
        <ele>494.74</ele>
        <time>2014-05-15T06:24:45Z</time>
      </trkpt>
      <trkpt lat="47.92497" lon="7.20857">
        <ele>494.74</ele>
        <time>2014-05-15T06:24:54Z</time>
      </trkpt>
      <trkpt lat="47.92503" lon="7.2085">
        <ele>495.22</ele>
        <time>2014-05-15T06:25:21Z</time>
      </trkpt>
      <trkpt lat="47.92504" lon="7.20849">
        <ele>496.18</ele>
        <time>2014-05-15T06:25:23Z</time>
      </trkpt>
      <trkpt lat="47.9251" lon="7.20849">
        <ele>498.58</ele>
        <time>2014-05-15T06:25:39Z</time>
      </trkpt>
      <trkpt lat="47.92513" lon="7.2085">
        <ele>502.91</ele>
        <time>2014-05-15T06:25:58Z</time>
      </trkpt>
      <trkpt lat="47.92523" lon="7.20846">
        <ele>506.27</ele>
        <time>2014-05-15T06:26:11Z</time>
      </trkpt>
      <trkpt lat="47.92531" lon="7.20841">
        <ele>510.12</ele>
        <time>2014-05-15T06:26:27Z</time>
      </trkpt>
      <trkpt lat="47.92532" lon="7.20841">
        <ele>506.75</ele>
        <time>2014-05-15T06:26:30Z</time>
      </trkpt>
      <trkpt lat="47.92533" lon="7.20842">
        <ele>510.6</ele>
        <time>2014-05-15T06:26:31Z</time>
      </trkpt>
      <trkpt lat="47.92537" lon="7.20845">
        <ele>513.96</ele>
        <time>2014-05-15T06:26:43Z</time>
      </trkpt>
      <trkpt lat="47.92548" lon="7.20853">
        <ele>514.44</ele>
        <time>2014-05-15T06:26:59Z</time>
      </trkpt>
      <trkpt lat="47.92555" lon="7.2086">
        <ele>518.29</ele>
        <time>2014-05-15T06:27:12Z</time>
      </trkpt>
      <trkpt lat="47.92559" lon="7.20867">
        <ele>517.81</ele>
        <time>2014-05-15T06:27:18Z</time>
      </trkpt>
      <trkpt lat="47.92567" lon="7.20874">
        <ele>521.17</ele>
        <time>2014-05-15T06:27:31Z</time>
      </trkpt>
      <trkpt lat="47.92573" lon="7.20885">
        <ele>523.58</ele>
        <time>2014-05-15T06:27:43Z</time>
      </trkpt>
      <trkpt lat="47.92574" lon="7.20887">
        <ele>520.69</ele>
        <time>2014-05-15T06:27:44Z</time>
      </trkpt>
      <trkpt lat="47.92574" lon="7.20888">
        <ele>521.17</ele>
        <time>2014-05-15T06:27:45Z</time>
      </trkpt>
      <trkpt lat="47.92575" lon="7.20889">
        <ele>525.02</ele>
        <time>2014-05-15T06:27:48Z</time>
      </trkpt>
      <trkpt lat="47.92576" lon="7.20888">
        <ele>521.17</ele>
        <time>2014-05-15T06:27:50Z</time>
      </trkpt>
      <trkpt lat="47.92576" lon="7.20888">
        <ele>524.06</ele>
        <time>2014-05-15T06:27:51Z</time>
      </trkpt>
      <trkpt lat="47.92579" lon="7.20888">
        <ele>527.42</ele>
        <time>2014-05-15T06:27:56Z</time>
      </trkpt>
      <trkpt lat="47.92579" lon="7.20888">
        <ele>523.09</ele>
        <time>2014-05-15T06:27:57Z</time>
      </trkpt>
      <trkpt lat="47.92579" lon="7.20888">
        <ele>527.9</ele>
        <time>2014-05-15T06:27:58Z</time>
      </trkpt>
      <trkpt lat="47.92586" lon="7.20899">
        <ele>526.94</ele>
        <time>2014-05-15T06:28:11Z</time>
      </trkpt>
      <trkpt lat="47.92595" lon="7.20907">
        <ele>531.75</ele>
        <time>2014-05-15T06:28:21Z</time>
      </trkpt>
      <trkpt lat="47.92597" lon="7.20908">
        <ele>527.42</ele>
        <time>2014-05-15T06:28:22Z</time>
      </trkpt>
      <trkpt lat="47.926" lon="7.20911">
        <ele>531.27</ele>
        <time>2014-05-15T06:28:25Z</time>
      </trkpt>
      <trkpt lat="47.92611" lon="7.20925">
        <ele>532.23</ele>
        <time>2014-05-15T06:28:43Z</time>
      </trkpt>
      <trkpt lat="47.92613" lon="7.20935">
        <ele>536.07</ele>
        <time>2014-05-15T06:28:51Z</time>
      </trkpt>
      <trkpt lat="47.92616" lon="7.20938">
        <ele>532.71</ele>
        <time>2014-05-15T06:28:54Z</time>
      </trkpt>
      <trkpt lat="47.92622" lon="7.20942">
        <ele>536.07</ele>
        <time>2014-05-15T06:28:59Z</time>
      </trkpt>
      <trkpt lat="47.92635" lon="7.20952">
        <ele>539.44</ele>
        <time>2014-05-15T06:29:11Z</time>
      </trkpt>
      <trkpt lat="47.92636" lon="7.20954">
        <ele>535.59</ele>
        <time>2014-05-15T06:29:12Z</time>
      </trkpt>
      <trkpt lat="47.92639" lon="7.2096">
        <ele>539.92</ele>
        <time>2014-05-15T06:29:18Z</time>
      </trkpt>
      <trkpt lat="47.92645" lon="7.20967">
        <ele>539.92</ele>
        <time>2014-05-15T06:29:26Z</time>
      </trkpt>
      <trkpt lat="47.92658" lon="7.20987">
        <ele>537.51</ele>
        <time>2014-05-15T06:29:43Z</time>
      </trkpt>
      <trkpt lat="47.92658" lon="7.20989">
        <ele>540.88</ele>
        <time>2014-05-15T06:29:44Z</time>
      </trkpt>
      <trkpt lat="47.9266" lon="7.20991">
        <ele>540.4</ele>
        <time>2014-05-15T06:29:45Z</time>
      </trkpt>
      <trkpt lat="47.92673" lon="7.21013">
        <ele>540.88</ele>
        <time>2014-05-15T06:29:59Z</time>
      </trkpt>
      <trkpt lat="47.92675" lon="7.21014">
        <ele>543.76</ele>
        <time>2014-05-15T06:30:01Z</time>
      </trkpt>
      <trkpt lat="47.92675" lon="7.21015">
        <ele>539.92</ele>
        <time>2014-05-15T06:30:02Z</time>
      </trkpt>
      <trkpt lat="47.9268" lon="7.21017">
        <ele>540.4</ele>
        <time>2014-05-15T06:30:25Z</time>
      </trkpt>
      <trkpt lat="47.92689" lon="7.21021">
        <ele>539.92</ele>
        <time>2014-05-15T06:30:32Z</time>
      </trkpt>
      <trkpt lat="47.92692" lon="7.21024">
        <ele>543.28</ele>
        <time>2014-05-15T06:30:35Z</time>
      </trkpt>
      <trkpt lat="47.927" lon="7.21029">
        <ele>539.92</ele>
        <time>2014-05-15T06:30:40Z</time>
      </trkpt>
      <trkpt lat="47.92706" lon="7.21036">
        <ele>543.28</ele>
        <time>2014-05-15T06:30:47Z</time>
      </trkpt>
      <trkpt lat="47.92707" lon="7.21038">
        <ele>540.4</ele>
        <time>2014-05-15T06:30:49Z</time>
      </trkpt>
      <trkpt lat="47.92711" lon="7.21042">
        <ele>543.28</ele>
        <time>2014-05-15T06:30:53Z</time>
      </trkpt>
      <trkpt lat="47.92721" lon="7.21052">
        <ele>539.44</ele>
        <time>2014-05-15T06:31:02Z</time>
      </trkpt>
      <trkpt lat="47.92726" lon="7.21057">
        <ele>540.4</ele>
        <time>2014-05-15T06:31:07Z</time>
      </trkpt>
      <trkpt lat="47.92728" lon="7.21058">
        <ele>539.44</ele>
        <time>2014-05-15T06:31:09Z</time>
      </trkpt>
      <trkpt lat="47.9274" lon="7.21071">
        <ele>541.36</ele>
        <time>2014-05-15T06:31:22Z</time>
      </trkpt>
      <trkpt lat="47.92748" lon="7.21067">
        <ele>541.84</ele>
        <time>2014-05-15T06:31:42Z</time>
      </trkpt>
      <trkpt lat="47.92748" lon="7.21067">
        <ele>542.8</ele>
        <time>2014-05-15T06:31:46Z</time>
      </trkpt>
      <trkpt lat="47.92748" lon="7.21067">
        <ele>543.28</ele>
        <time>2014-05-15T06:31:52Z</time>
      </trkpt>
      <trkpt lat="47.92753" lon="7.21063">
        <ele>543.28</ele>
        <time>2014-05-15T06:32:12Z</time>
      </trkpt>
      <trkpt lat="47.92753" lon="7.2106">
        <ele>543.76</ele>
        <time>2014-05-15T06:32:15Z</time>
      </trkpt>
      <trkpt lat="47.92744" lon="7.21055">
        <ele>542.8</ele>
        <time>2014-05-15T06:32:34Z</time>
      </trkpt>
      <trkpt lat="47.92744" lon="7.21055">
        <ele>545.69</ele>
        <time>2014-05-15T06:32:48Z</time>
      </trkpt>
      <trkpt lat="47.92744" lon="7.21055">
        <ele>541.84</ele>
        <time>2014-05-15T06:32:49Z</time>
      </trkpt>
      <trkpt lat="47.9275" lon="7.21066">
        <ele>542.8</ele>
        <time>2014-05-15T06:33:05Z</time>
      </trkpt>
      <trkpt lat="47.9275" lon="7.21066">
        <ele>543.28</ele>
        <time>2014-05-15T06:33:14Z</time>
      </trkpt>
      <trkpt lat="47.9275" lon="7.21066">
        <ele>542.32</ele>
        <time>2014-05-15T06:33:37Z</time>
      </trkpt>
      <trkpt lat="47.92751" lon="7.21059">
        <ele>541.36</ele>
        <time>2014-05-15T06:34:26Z</time>
      </trkpt>
      <trkpt lat="47.92751" lon="7.21059">
        <ele>542.8</ele>
        <time>2014-05-15T06:34:28Z</time>
      </trkpt>
      <trkpt lat="47.92746" lon="7.21055">
        <ele>541.36</ele>
        <time>2014-05-15T06:34:46Z</time>
      </trkpt>
      <trkpt lat="47.92743" lon="7.21059">
        <ele>542.32</ele>
        <time>2014-05-15T06:34:55Z</time>
      </trkpt>
      <trkpt lat="47.92737" lon="7.21068">
        <ele>541.36</ele>
        <time>2014-05-15T06:35:08Z</time>
      </trkpt>
      <trkpt lat="47.92739" lon="7.21055">
        <ele>540.88</ele>
        <time>2014-05-15T06:35:26Z</time>
      </trkpt>
      <trkpt lat="47.92737" lon="7.2105">
        <ele>543.76</ele>
        <time>2014-05-15T06:35:28Z</time>
      </trkpt>
      <trkpt lat="47.92735" lon="7.21048">
        <ele>540.88</ele>
        <time>2014-05-15T06:35:30Z</time>
      </trkpt>
      <trkpt lat="47.92735" lon="7.21047">
        <ele>540.88</ele>
        <time>2014-05-15T06:35:31Z</time>
      </trkpt>
      <trkpt lat="47.92732" lon="7.21041">
        <ele>541.36</ele>
        <time>2014-05-15T06:35:48Z</time>
      </trkpt>
      <trkpt lat="47.9272" lon="7.21031">
        <ele>540.4</ele>
        <time>2014-05-15T06:35:54Z</time>
      </trkpt>
      <trkpt lat="47.92717" lon="7.21029">
        <ele>541.84</ele>
        <time>2014-05-15T06:35:56Z</time>
      </trkpt>
      <trkpt lat="47.9271" lon="7.2102">
        <ele>541.84</ele>
        <time>2014-05-15T06:36:02Z</time>
      </trkpt>
      <trkpt lat="47.92693" lon="7.21009">
        <ele>539.92</ele>
        <time>2014-05-15T06:36:18Z</time>
      </trkpt>
      <trkpt lat="47.92692" lon="7.21008">
        <ele>540.88</ele>
        <time>2014-05-15T06:36:19Z</time>
      </trkpt>
      <trkpt lat="47.92689" lon="7.21006">
        <ele>542.32</ele>
        <time>2014-05-15T06:36:22Z</time>
      </trkpt>
      <trkpt lat="47.92687" lon="7.21004">
        <ele>539.92</ele>
        <time>2014-05-15T06:36:25Z</time>
      </trkpt>
      <trkpt lat="47.92684" lon="7.21002">
        <ele>541.36</ele>
        <time>2014-05-15T06:36:28Z</time>
      </trkpt>
      <trkpt lat="47.92664" lon="7.20984">
        <ele>538.48</ele>
        <time>2014-05-15T06:36:44Z</time>
      </trkpt>
      <trkpt lat="47.92657" lon="7.20974">
        <ele>538.96</ele>
        <time>2014-05-15T06:36:52Z</time>
      </trkpt>
      <trkpt lat="47.92641" lon="7.20956">
        <ele>535.59</ele>
        <time>2014-05-15T06:37:07Z</time>
      </trkpt>
      <trkpt lat="47.9263" lon="7.20943">
        <ele>533.67</ele>
        <time>2014-05-15T06:37:21Z</time>
      </trkpt>
      <trkpt lat="47.92629" lon="7.2094">
        <ele>533.67</ele>
        <time>2014-05-15T06:37:23Z</time>
      </trkpt>
      <trkpt lat="47.92619" lon="7.20929">
        <ele>530.79</ele>
        <time>2014-05-15T06:37:34Z</time>
      </trkpt>
      <trkpt lat="47.92613" lon="7.20917">
        <ele>529.34</ele>
        <time>2014-05-15T06:37:44Z</time>
      </trkpt>
      <trkpt lat="47.9261" lon="7.20912">
        <ele>530.3</ele>
        <time>2014-05-15T06:37:48Z</time>
      </trkpt>
      <trkpt lat="47.92603" lon="7.20903">
        <ele>526.94</ele>
        <time>2014-05-15T06:37:53Z</time>
      </trkpt>
      <trkpt lat="47.92595" lon="7.20895">
        <ele>529.34</ele>
        <time>2014-05-15T06:38:01Z</time>
      </trkpt>
      <trkpt lat="47.92593" lon="7.20894">
        <ele>524.06</ele>
        <time>2014-05-15T06:38:03Z</time>
      </trkpt>
      <trkpt lat="47.92592" lon="7.20894">
        <ele>525.02</ele>
        <time>2014-05-15T06:38:04Z</time>
      </trkpt>
      <trkpt lat="47.9259" lon="7.20889">
        <ele>525.5</ele>
        <time>2014-05-15T06:38:11Z</time>
      </trkpt>
      <trkpt lat="47.92588" lon="7.20888">
        <ele>521.17</ele>
        <time>2014-05-15T06:38:39Z</time>
      </trkpt>
      <trkpt lat="47.92587" lon="7.20887">
        <ele>520.69</ele>
        <time>2014-05-15T06:38:40Z</time>
      </trkpt>
      <trkpt lat="47.92585" lon="7.20883">
        <ele>522.61</ele>
        <time>2014-05-15T06:38:43Z</time>
      </trkpt>
      <trkpt lat="47.92583" lon="7.20881">
        <ele>524.54</ele>
        <time>2014-05-15T06:38:45Z</time>
      </trkpt>
      <trkpt lat="47.9258" lon="7.20878">
        <ele>519.25</ele>
        <time>2014-05-15T06:38:49Z</time>
      </trkpt>
      <trkpt lat="47.92567" lon="7.2086">
        <ele>515.88</ele>
        <time>2014-05-15T06:39:05Z</time>
      </trkpt>
      <trkpt lat="47.92566" lon="7.20858">
        <ele>516.85</ele>
        <time>2014-05-15T06:39:06Z</time>
      </trkpt>
      <trkpt lat="47.92553" lon="7.20844">
        <ele>513</ele>
        <time>2014-05-15T06:39:19Z</time>
      </trkpt>
      <trkpt lat="47.92547" lon="7.20838">
        <ele>513</ele>
        <time>2014-05-15T06:39:27Z</time>
      </trkpt>
      <trkpt lat="47.92542" lon="7.20832">
        <ele>509.64</ele>
        <time>2014-05-15T06:39:35Z</time>
      </trkpt>
      <trkpt lat="47.92536" lon="7.20825">
        <ele>506.27</ele>
        <time>2014-05-15T06:39:43Z</time>
      </trkpt>
      <trkpt lat="47.9252" lon="7.20821">
        <ele>503.39</ele>
        <time>2014-05-15T06:39:56Z</time>
      </trkpt>
      <trkpt lat="47.92518" lon="7.20821">
        <ele>503.39</ele>
        <time>2014-05-15T06:39:57Z</time>
      </trkpt>
      <trkpt lat="47.92515" lon="7.20822">
        <ele>500.02</ele>
        <time>2014-05-15T06:40:03Z</time>
      </trkpt>
      <trkpt lat="47.92515" lon="7.20822">
        <ele>500.5</ele>
        <time>2014-05-15T06:40:04Z</time>
      </trkpt>
      <trkpt lat="47.92512" lon="7.20822">
        <ele>502.43</ele>
        <time>2014-05-15T06:40:07Z</time>
      </trkpt>
      <trkpt lat="47.92509" lon="7.20824">
        <ele>499.54</ele>
        <time>2014-05-15T06:40:10Z</time>
      </trkpt>
      <trkpt lat="47.92511" lon="7.20817">
        <ele>500.5</ele>
        <time>2014-05-15T06:40:20Z</time>
      </trkpt>
      <trkpt lat="47.92518" lon="7.20801">
        <ele>501.95</ele>
        <time>2014-05-15T06:40:30Z</time>
      </trkpt>
      <trkpt lat="47.92515" lon="7.20783">
        <ele>500.98</ele>
        <time>2014-05-15T06:40:50Z</time>
      </trkpt>
      <trkpt lat="47.92507" lon="7.20765">
        <ele>500.5</ele>
        <time>2014-05-15T06:41:00Z</time>
      </trkpt>
      <trkpt lat="47.92495" lon="7.2074">
        <ele>500.5</ele>
        <time>2014-05-15T06:41:21Z</time>
      </trkpt>
      <trkpt lat="47.92493" lon="7.20723">
        <ele>500.5</ele>
        <time>2014-05-15T06:41:50Z</time>
      </trkpt>
      <trkpt lat="47.92491" lon="7.2072">
        <ele>499.54</ele>
        <time>2014-05-15T06:42:05Z</time>
      </trkpt>
      <trkpt lat="47.92493" lon="7.20707">
        <ele>500.02</ele>
        <time>2014-05-15T06:42:19Z</time>
      </trkpt>
      <trkpt lat="47.92487" lon="7.20689">
        <ele>499.54</ele>
        <time>2014-05-15T06:42:32Z</time>
      </trkpt>
      <trkpt lat="47.9248" lon="7.20667">
        <ele>499.06</ele>
        <time>2014-05-15T06:42:50Z</time>
      </trkpt>
      <trkpt lat="47.92475" lon="7.20652">
        <ele>499.06</ele>
        <time>2014-05-15T06:43:06Z</time>
      </trkpt>
      <trkpt lat="47.92479" lon="7.20622">
        <ele>498.58</ele>
        <time>2014-05-15T06:43:24Z</time>
      </trkpt>
      <trkpt lat="47.92478" lon="7.2061">
        <ele>500.02</ele>
        <time>2014-05-15T06:43:34Z</time>
      </trkpt>
      <trkpt lat="47.92478" lon="7.20609">
        <ele>499.06</ele>
        <time>2014-05-15T06:43:36Z</time>
      </trkpt>
      <trkpt lat="47.92479" lon="7.20605">
        <ele>497.62</ele>
        <time>2014-05-15T06:43:40Z</time>
      </trkpt>
      <trkpt lat="47.9248" lon="7.20591">
        <ele>499.54</ele>
        <time>2014-05-15T06:43:47Z</time>
      </trkpt>
      <trkpt lat="47.9248" lon="7.20583">
        <ele>497.62</ele>
        <time>2014-05-15T06:43:50Z</time>
      </trkpt>
      <trkpt lat="47.92478" lon="7.2057">
        <ele>497.14</ele>
        <time>2014-05-15T06:43:55Z</time>
      </trkpt>
      <trkpt lat="47.92473" lon="7.20559">
        <ele>495.7</ele>
        <time>2014-05-15T06:44:02Z</time>
      </trkpt>
      <trkpt lat="47.92476" lon="7.20552">
        <ele>499.54</ele>
        <time>2014-05-15T06:44:17Z</time>
      </trkpt>
      <trkpt lat="47.92468" lon="7.20532">
        <ele>499.06</ele>
        <time>2014-05-15T06:44:35Z</time>
      </trkpt>
      <trkpt lat="47.92464" lon="7.20528">
        <ele>502.43</ele>
        <time>2014-05-15T06:44:46Z</time>
      </trkpt>
      <trkpt lat="47.92464" lon="7.20528">
        <ele>503.39</ele>
        <time>2014-05-15T06:45:03Z</time>
      </trkpt>
      <trkpt lat="47.92464" lon="7.20533">
        <ele>505.31</ele>
        <time>2014-05-15T06:45:25Z</time>
      </trkpt>
      <trkpt lat="47.92468" lon="7.2054">
        <ele>506.27</ele>
        <time>2014-05-15T06:45:32Z</time>
      </trkpt>
      <trkpt lat="47.92473" lon="7.20544">
        <ele>509.64</ele>
        <time>2014-05-15T06:45:44Z</time>
      </trkpt>
      <trkpt lat="47.92486" lon="7.20531">
        <ele>510.6</ele>
        <time>2014-05-15T06:46:01Z</time>
      </trkpt>
      <trkpt lat="47.92491" lon="7.20526">
        <ele>513.96</ele>
        <time>2014-05-15T06:46:10Z</time>
      </trkpt>
      <trkpt lat="47.92498" lon="7.20507">
        <ele>514.44</ele>
        <time>2014-05-15T06:46:26Z</time>
      </trkpt>
      <trkpt lat="47.92497" lon="7.20503">
        <ele>515.88</ele>
        <time>2014-05-15T06:46:29Z</time>
      </trkpt>
      <trkpt lat="47.92486" lon="7.20488">
        <ele>514.44</ele>
        <time>2014-05-15T06:46:42Z</time>
      </trkpt>
      <trkpt lat="47.92487" lon="7.20492">
        <ele>514.44</ele>
        <time>2014-05-15T06:47:02Z</time>
      </trkpt>
      <trkpt lat="47.9249" lon="7.20475">
        <ele>511.56</ele>
        <time>2014-05-15T06:47:14Z</time>
      </trkpt>
      <trkpt lat="47.92491" lon="7.20471">
        <ele>513.48</ele>
        <time>2014-05-15T06:47:17Z</time>
      </trkpt>
      <trkpt lat="47.92495" lon="7.2045">
        <ele>513.96</ele>
        <time>2014-05-15T06:47:34Z</time>
      </trkpt>
      <trkpt lat="47.92494" lon="7.20435">
        <ele>513.96</ele>
        <time>2014-05-15T06:47:53Z</time>
      </trkpt>
      <trkpt lat="47.92495" lon="7.20435">
        <ele>513.48</ele>
        <time>2014-05-15T06:48:52Z</time>
      </trkpt>
      <trkpt lat="47.92495" lon="7.20434">
        <ele>514.44</ele>
        <time>2014-05-15T06:49:38Z</time>
      </trkpt>
      <trkpt lat="47.92496" lon="7.20435">
        <ele>514.44</ele>
        <time>2014-05-15T06:49:57Z</time>
      </trkpt>
      <trkpt lat="47.92511" lon="7.20421">
        <ele>513</ele>
        <time>2014-05-15T06:50:14Z</time>
      </trkpt>
      <trkpt lat="47.92512" lon="7.2042">
        <ele>513.96</ele>
        <time>2014-05-15T06:50:15Z</time>
      </trkpt>
      <trkpt lat="47.92522" lon="7.20409">
        <ele>513</ele>
        <time>2014-05-15T06:50:26Z</time>
      </trkpt>
      <trkpt lat="47.92527" lon="7.20403">
        <ele>513.48</ele>
        <time>2014-05-15T06:50:31Z</time>
      </trkpt>
      <trkpt lat="47.92543" lon="7.20383">
        <ele>515.4</ele>
        <time>2014-05-15T06:50:49Z</time>
      </trkpt>
      <trkpt lat="47.92546" lon="7.20378">
        <ele>513.96</ele>
        <time>2014-05-15T06:50:56Z</time>
      </trkpt>
      <trkpt lat="47.92548" lon="7.20376">
        <ele>515.4</ele>
        <time>2014-05-15T06:50:58Z</time>
      </trkpt>
      <trkpt lat="47.92554" lon="7.20371">
        <ele>512.04</ele>
        <time>2014-05-15T06:51:04Z</time>
      </trkpt>
      <trkpt lat="47.9256" lon="7.20366">
        <ele>512.04</ele>
        <time>2014-05-15T06:51:11Z</time>
      </trkpt>
      <trkpt lat="47.92561" lon="7.20364">
        <ele>513.48</ele>
        <time>2014-05-15T06:51:13Z</time>
      </trkpt>
      <trkpt lat="47.9257" lon="7.20354">
        <ele>510.12</ele>
        <time>2014-05-15T06:51:21Z</time>
      </trkpt>
      <trkpt lat="47.92571" lon="7.20353">
        <ele>511.08</ele>
        <time>2014-05-15T06:51:22Z</time>
      </trkpt>
      <trkpt lat="47.92574" lon="7.20349">
        <ele>512.52</ele>
        <time>2014-05-15T06:51:25Z</time>
      </trkpt>
      <trkpt lat="47.92577" lon="7.20344">
        <ele>509.64</ele>
        <time>2014-05-15T06:51:30Z</time>
      </trkpt>
      <trkpt lat="47.92578" lon="7.20343">
        <ele>509.64</ele>
        <time>2014-05-15T06:51:31Z</time>
      </trkpt>
      <trkpt lat="47.92582" lon="7.2034">
        <ele>511.56</ele>
        <time>2014-05-15T06:51:35Z</time>
      </trkpt>
      <trkpt lat="47.92584" lon="7.20337">
        <ele>512.52</ele>
        <time>2014-05-15T06:51:37Z</time>
      </trkpt>
      <trkpt lat="47.92586" lon="7.20333">
        <ele>510.6</ele>
        <time>2014-05-15T06:51:39Z</time>
      </trkpt>
      <trkpt lat="47.92589" lon="7.20328">
        <ele>511.08</ele>
        <time>2014-05-15T06:51:43Z</time>
      </trkpt>
      <trkpt lat="47.92594" lon="7.20323">
        <ele>509.64</ele>
        <time>2014-05-15T06:51:47Z</time>
      </trkpt>
      <trkpt lat="47.92604" lon="7.20306">
        <ele>509.16</ele>
        <time>2014-05-15T06:52:01Z</time>
      </trkpt>
      <trkpt lat="47.92605" lon="7.203">
        <ele>507.23</ele>
        <time>2014-05-15T06:52:04Z</time>
      </trkpt>
      <trkpt lat="47.92608" lon="7.20283">
        <ele>505.31</ele>
        <time>2014-05-15T06:52:19Z</time>
      </trkpt>
      <trkpt lat="47.92612" lon="7.20269">
        <ele>505.79</ele>
        <time>2014-05-15T06:52:26Z</time>
      </trkpt>
      <trkpt lat="47.92613" lon="7.20259">
        <ele>504.35</ele>
        <time>2014-05-15T06:52:31Z</time>
      </trkpt>
      <trkpt lat="47.92619" lon="7.20245">
        <ele>503.87</ele>
        <time>2014-05-15T06:52:45Z</time>
      </trkpt>
      <trkpt lat="47.92622" lon="7.20245">
        <ele>505.31</ele>
        <time>2014-05-15T06:53:10Z</time>
      </trkpt>
      <trkpt lat="47.92623" lon="7.20246">
        <ele>506.75</ele>
        <time>2014-05-15T06:53:14Z</time>
      </trkpt>
      <trkpt lat="47.92628" lon="7.20252">
        <ele>509.16</ele>
        <time>2014-05-15T06:53:27Z</time>
      </trkpt>
      <trkpt lat="47.92629" lon="7.20254">
        <ele>510.6</ele>
        <time>2014-05-15T06:53:36Z</time>
      </trkpt>
      <trkpt lat="47.92631" lon="7.20255">
        <ele>509.16</ele>
        <time>2014-05-15T06:53:38Z</time>
      </trkpt>
      <trkpt lat="47.92635" lon="7.2026">
        <ele>511.56</ele>
        <time>2014-05-15T06:53:42Z</time>
      </trkpt>
      <trkpt lat="47.92638" lon="7.20263">
        <ele>513</ele>
        <time>2014-05-15T06:53:48Z</time>
      </trkpt>
      <trkpt lat="47.92645" lon="7.20265">
        <ele>516.37</ele>
        <time>2014-05-15T06:54:02Z</time>
      </trkpt>
      <trkpt lat="47.92661" lon="7.20244">
        <ele>517.33</ele>
        <time>2014-05-15T06:54:19Z</time>
      </trkpt>
      <trkpt lat="47.92661" lon="7.20245">
        <ele>516.85</ele>
        <time>2014-05-15T06:54:43Z</time>
      </trkpt>
      <trkpt lat="47.92663" lon="7.20241">
        <ele>517.33</ele>
        <time>2014-05-15T06:54:58Z</time>
      </trkpt>
      <trkpt lat="47.92662" lon="7.2024">
        <ele>512.04</ele>
        <time>2014-05-15T06:55:39Z</time>
      </trkpt>
      <trkpt lat="47.92663" lon="7.20237">
        <ele>514.92</ele>
        <time>2014-05-15T06:55:40Z</time>
      </trkpt>
      <trkpt lat="47.92668" lon="7.20227">
        <ele>513.96</ele>
        <time>2014-05-15T06:55:44Z</time>
      </trkpt>
      <trkpt lat="47.92669" lon="7.20224">
        <ele>515.4</ele>
        <time>2014-05-15T06:55:46Z</time>
      </trkpt>
      <trkpt lat="47.92669" lon="7.20221">
        <ele>514.44</ele>
        <time>2014-05-15T06:55:48Z</time>
      </trkpt>
      <trkpt lat="47.92671" lon="7.20197">
        <ele>518.29</ele>
        <time>2014-05-15T06:56:04Z</time>
      </trkpt>
      <trkpt lat="47.92671" lon="7.20196">
        <ele>514.44</ele>
        <time>2014-05-15T06:56:05Z</time>
      </trkpt>
      <trkpt lat="47.92673" lon="7.2019">
        <ele>517.81</ele>
        <time>2014-05-15T06:56:09Z</time>
      </trkpt>
      <trkpt lat="47.92681" lon="7.20177">
        <ele>514.44</ele>
        <time>2014-05-15T06:56:23Z</time>
      </trkpt>
      <trkpt lat="47.92681" lon="7.20175">
        <ele>515.88</ele>
        <time>2014-05-15T06:56:24Z</time>
      </trkpt>
      <trkpt lat="47.92683" lon="7.20171">
        <ele>519.25</ele>
        <time>2014-05-15T06:56:26Z</time>
      </trkpt>
      <trkpt lat="47.92685" lon="7.20159">
        <ele>515.88</ele>
        <time>2014-05-15T06:56:32Z</time>
      </trkpt>
      <trkpt lat="47.92684" lon="7.20147">
        <ele>512.52</ele>
        <time>2014-05-15T06:56:38Z</time>
      </trkpt>
      <trkpt lat="47.92684" lon="7.20142">
        <ele>515.88</ele>
        <time>2014-05-15T06:56:43Z</time>
      </trkpt>
      <trkpt lat="47.92685" lon="7.20141">
        <ele>516.85</ele>
        <time>2014-05-15T06:56:45Z</time>
      </trkpt>
      <trkpt lat="47.92682" lon="7.20131">
        <ele>511.56</ele>
        <time>2014-05-15T06:56:53Z</time>
      </trkpt>
      <trkpt lat="47.92681" lon="7.2013">
        <ele>514.92</ele>
        <time>2014-05-15T06:56:54Z</time>
      </trkpt>
      <trkpt lat="47.92679" lon="7.20127">
        <ele>509.64</ele>
        <time>2014-05-15T06:57:01Z</time>
      </trkpt>
      <trkpt lat="47.92678" lon="7.20126">
        <ele>512.52</ele>
        <time>2014-05-15T06:57:02Z</time>
      </trkpt>
      <trkpt lat="47.92677" lon="7.20123">
        <ele>514.44</ele>
        <time>2014-05-15T06:57:04Z</time>
      </trkpt>
      <trkpt lat="47.92678" lon="7.20119">
        <ele>509.64</ele>
        <time>2014-05-15T06:57:06Z</time>
      </trkpt>
      <trkpt lat="47.92678" lon="7.20115">
        <ele>510.6</ele>
        <time>2014-05-15T06:57:10Z</time>
      </trkpt>
      <trkpt lat="47.92686" lon="7.201">
        <ele>508.67</ele>
        <time>2014-05-15T06:57:27Z</time>
      </trkpt>
      <trkpt lat="47.92688" lon="7.20094">
        <ele>510.6</ele>
        <time>2014-05-15T06:57:31Z</time>
      </trkpt>
      <trkpt lat="47.92688" lon="7.20094">
        <ele>507.23</ele>
        <time>2014-05-15T06:57:33Z</time>
      </trkpt>
      <trkpt lat="47.9269" lon="7.2009">
        <ele>508.67</ele>
        <time>2014-05-15T06:57:36Z</time>
      </trkpt>
      <trkpt lat="47.92692" lon="7.20087">
        <ele>505.79</ele>
        <time>2014-05-15T06:57:39Z</time>
      </trkpt>
      <trkpt lat="47.92692" lon="7.20086">
        <ele>508.67</ele>
        <time>2014-05-15T06:57:40Z</time>
      </trkpt>
      <trkpt lat="47.92694" lon="7.20078">
        <ele>508.19</ele>
        <time>2014-05-15T06:58:01Z</time>
      </trkpt>
      <trkpt lat="47.92697" lon="7.20063">
        <ele>510.6</ele>
        <time>2014-05-15T06:58:13Z</time>
      </trkpt>
      <trkpt lat="47.92698" lon="7.20063">
        <ele>507.23</ele>
        <time>2014-05-15T06:58:14Z</time>
      </trkpt>
      <trkpt lat="47.92698" lon="7.20062">
        <ele>510.6</ele>
        <time>2014-05-15T06:58:15Z</time>
      </trkpt>
      <trkpt lat="47.92706" lon="7.20053">
        <ele>513.96</ele>
        <time>2014-05-15T06:58:30Z</time>
      </trkpt>
      <trkpt lat="47.92707" lon="7.20052">
        <ele>511.08</ele>
        <time>2014-05-15T06:58:31Z</time>
      </trkpt>
      <trkpt lat="47.9271" lon="7.20046">
        <ele>514.44</ele>
        <time>2014-05-15T06:58:34Z</time>
      </trkpt>
      <trkpt lat="47.92711" lon="7.20044">
        <ele>513.96</ele>
        <time>2014-05-15T06:58:35Z</time>
      </trkpt>
      <trkpt lat="47.92711" lon="7.20041">
        <ele>510.12</ele>
        <time>2014-05-15T06:58:36Z</time>
      </trkpt>
      <trkpt lat="47.92713" lon="7.2003">
        <ele>507.23</ele>
        <time>2014-05-15T06:58:50Z</time>
      </trkpt>
      <trkpt lat="47.92709" lon="7.20014">
        <ele>502.91</ele>
        <time>2014-05-15T06:59:01Z</time>
      </trkpt>
      <trkpt lat="47.92712" lon="7.20007">
        <ele>504.83</ele>
        <time>2014-05-15T06:59:07Z</time>
      </trkpt>
      <trkpt lat="47.92722" lon="7.20007">
        <ele>504.35</ele>
        <time>2014-05-15T06:59:22Z</time>
      </trkpt>
      <trkpt lat="47.92739" lon="7.19998">
        <ele>503.87</ele>
        <time>2014-05-15T06:59:37Z</time>
      </trkpt>
      <trkpt lat="47.92741" lon="7.19998">
        <ele>502.91</ele>
        <time>2014-05-15T06:59:41Z</time>
      </trkpt>
      <trkpt lat="47.92742" lon="7.19999">
        <ele>502.91</ele>
        <time>2014-05-15T06:59:42Z</time>
      </trkpt>
      <trkpt lat="47.92743" lon="7.20001">
        <ele>501.95</ele>
        <time>2014-05-15T06:59:44Z</time>
      </trkpt>
      <trkpt lat="47.92747" lon="7.2001">
        <ele>503.39</ele>
        <time>2014-05-15T07:00:06Z</time>
      </trkpt>
      <trkpt lat="47.92746" lon="7.19998">
        <ele>501.95</ele>
        <time>2014-05-15T07:00:31Z</time>
      </trkpt>
      <trkpt lat="47.92748" lon="7.19992">
        <ele>500.98</ele>
        <time>2014-05-15T07:00:35Z</time>
      </trkpt>
      <trkpt lat="47.92761" lon="7.19976">
        <ele>501.95</ele>
        <time>2014-05-15T07:00:50Z</time>
      </trkpt>
      <trkpt lat="47.92766" lon="7.1995">
        <ele>501.95</ele>
        <time>2014-05-15T07:01:14Z</time>
      </trkpt>
      <trkpt lat="47.92776" lon="7.19942">
        <ele>500.98</ele>
        <time>2014-05-15T07:01:30Z</time>
      </trkpt>
      <trkpt lat="47.92788" lon="7.19937">
        <ele>500.98</ele>
        <time>2014-05-15T07:01:48Z</time>
      </trkpt>
      <trkpt lat="47.9279" lon="7.19936">
        <ele>501.46</ele>
        <time>2014-05-15T07:01:56Z</time>
      </trkpt>
      <trkpt lat="47.92791" lon="7.19956">
        <ele>500.98</ele>
        <time>2014-05-15T07:02:08Z</time>
      </trkpt>
      <trkpt lat="47.92801" lon="7.19958">
        <ele>500.5</ele>
        <time>2014-05-15T07:02:27Z</time>
      </trkpt>
      <trkpt lat="47.92818" lon="7.19945">
        <ele>499.54</ele>
        <time>2014-05-15T07:02:37Z</time>
      </trkpt>
      <trkpt lat="47.92834" lon="7.19947">
        <ele>500.5</ele>
        <time>2014-05-15T07:02:57Z</time>
      </trkpt>
      <trkpt lat="47.92837" lon="7.19954">
        <ele>500.02</ele>
        <time>2014-05-15T07:03:12Z</time>
      </trkpt>
      <trkpt lat="47.92841" lon="7.19957">
        <ele>500.5</ele>
        <time>2014-05-15T07:03:20Z</time>
      </trkpt>
      <trkpt lat="47.92846" lon="7.19961">
        <ele>499.54</ele>
        <time>2014-05-15T07:03:41Z</time>
      </trkpt>
      <trkpt lat="47.92867" lon="7.19956">
        <ele>500.02</ele>
        <time>2014-05-15T07:03:57Z</time>
      </trkpt>
      <trkpt lat="47.92873" lon="7.19935">
        <ele>499.54</ele>
        <time>2014-05-15T07:04:11Z</time>
      </trkpt>
      <trkpt lat="47.92881" lon="7.19915">
        <ele>500.98</ele>
        <time>2014-05-15T07:04:27Z</time>
      </trkpt>
      <trkpt lat="47.92883" lon="7.19908">
        <ele>500.02</ele>
        <time>2014-05-15T07:04:45Z</time>
      </trkpt>
      <trkpt lat="47.92882" lon="7.19907">
        <ele>500.98</ele>
        <time>2014-05-15T07:04:47Z</time>
      </trkpt>
      <trkpt lat="47.92872" lon="7.19906">
        <ele>500.02</ele>
        <time>2014-05-15T07:05:04Z</time>
      </trkpt>
      <trkpt lat="47.92866" lon="7.19902">
        <ele>501.46</ele>
        <time>2014-05-15T07:05:08Z</time>
      </trkpt>
      <trkpt lat="47.92861" lon="7.19898">
        <ele>500.5</ele>
        <time>2014-05-15T07:05:27Z</time>
      </trkpt>
      <trkpt lat="47.92856" lon="7.19894">
        <ele>499.54</ele>
        <time>2014-05-15T07:05:36Z</time>
      </trkpt>
      <trkpt lat="47.92843" lon="7.19887">
        <ele>499.06</ele>
        <time>2014-05-15T07:05:54Z</time>
      </trkpt>
      <trkpt lat="47.92841" lon="7.19886">
        <ele>499.06</ele>
        <time>2014-05-15T07:06:14Z</time>
      </trkpt>
      <trkpt lat="47.92843" lon="7.19884">
        <ele>496.18</ele>
        <time>2014-05-15T07:06:22Z</time>
      </trkpt>
      <trkpt lat="47.92855" lon="7.19882">
        <ele>492.33</ele>
        <time>2014-05-15T07:06:37Z</time>
      </trkpt>
      <trkpt lat="47.92856" lon="7.19881">
        <ele>490.89</ele>
        <time>2014-05-15T07:06:51Z</time>
      </trkpt>
      <trkpt lat="47.92859" lon="7.1988">
        <ele>487.53</ele>
        <time>2014-05-15T07:07:00Z</time>
      </trkpt>
      <trkpt lat="47.92863" lon="7.19879">
        <ele>486.08</ele>
        <time>2014-05-15T07:07:02Z</time>
      </trkpt>
      <trkpt lat="47.92871" lon="7.19876">
        <ele>486.08</ele>
        <time>2014-05-15T07:07:09Z</time>
      </trkpt>
      <trkpt lat="47.92864" lon="7.19859">
        <ele>482.72</ele>
        <time>2014-05-15T07:07:20Z</time>
      </trkpt>
      <trkpt lat="47.92863" lon="7.19858">
        <ele>482.72</ele>
        <time>2014-05-15T07:07:21Z</time>
      </trkpt>
      <trkpt lat="47.92863" lon="7.19856">
        <ele>481.28</ele>
        <time>2014-05-15T07:07:24Z</time>
      </trkpt>
      <trkpt lat="47.92864" lon="7.19857">
        <ele>479.35</ele>
        <time>2014-05-15T07:07:27Z</time>
      </trkpt>
      <trkpt lat="47.92864" lon="7.19857">
        <ele>481.76</ele>
        <time>2014-05-15T07:07:30Z</time>
      </trkpt>
      <trkpt lat="47.92867" lon="7.19857">
        <ele>479.35</ele>
        <time>2014-05-15T07:07:34Z</time>
      </trkpt>
      <trkpt lat="47.92874" lon="7.19862">
        <ele>475.03</ele>
        <time>2014-05-15T07:07:40Z</time>
      </trkpt>
      <trkpt lat="47.92875" lon="7.19847">
        <ele>476.47</ele>
        <time>2014-05-15T07:07:54Z</time>
      </trkpt>
      <trkpt lat="47.92875" lon="7.19847">
        <ele>474.55</ele>
        <time>2014-05-15T07:07:57Z</time>
      </trkpt>
      <trkpt lat="47.92874" lon="7.19844">
        <ele>470.7</ele>
        <time>2014-05-15T07:08:01Z</time>
      </trkpt>
      <trkpt lat="47.92872" lon="7.19837">
        <ele>469.74</ele>
        <time>2014-05-15T07:08:04Z</time>
      </trkpt>
      <trkpt lat="47.92868" lon="7.19831">
        <ele>472.14</ele>
        <time>2014-05-15T07:08:08Z</time>
      </trkpt>
      <trkpt lat="47.92861" lon="7.19824">
        <ele>467.82</ele>
        <time>2014-05-15T07:08:15Z</time>
      </trkpt>
      <trkpt lat="47.92859" lon="7.19823">
        <ele>467.82</ele>
        <time>2014-05-15T07:08:16Z</time>
      </trkpt>
      <trkpt lat="47.92854" lon="7.19813">
        <ele>464.45</ele>
        <time>2014-05-15T07:08:28Z</time>
      </trkpt>
      <trkpt lat="47.92843" lon="7.19803">
        <ele>465.9</ele>
        <time>2014-05-15T07:08:40Z</time>
      </trkpt>
      <trkpt lat="47.92838" lon="7.19799">
        <ele>463.49</ele>
        <time>2014-05-15T07:08:47Z</time>
      </trkpt>
      <trkpt lat="47.92837" lon="7.19798">
        <ele>466.38</ele>
        <time>2014-05-15T07:08:49Z</time>
      </trkpt>
      <trkpt lat="47.92833" lon="7.19794">
        <ele>464.45</ele>
        <time>2014-05-15T07:08:53Z</time>
      </trkpt>
      <trkpt lat="47.92829" lon="7.19792">
        <ele>463.49</ele>
        <time>2014-05-15T07:08:58Z</time>
      </trkpt>
      <trkpt lat="47.92828" lon="7.19791">
        <ele>460.13</ele>
        <time>2014-05-15T07:08:59Z</time>
      </trkpt>
      <trkpt lat="47.92826" lon="7.19791">
        <ele>462.05</ele>
        <time>2014-05-15T07:09:00Z</time>
      </trkpt>
      <trkpt lat="47.92821" lon="7.19784">
        <ele>458.21</ele>
        <time>2014-05-15T07:09:09Z</time>
      </trkpt>
      <trkpt lat="47.92833" lon="7.19786">
        <ele>460.13</ele>
        <time>2014-05-15T07:09:18Z</time>
      </trkpt>
      <trkpt lat="47.92837" lon="7.19783">
        <ele>455.32</ele>
        <time>2014-05-15T07:09:22Z</time>
      </trkpt>
      <trkpt lat="47.92837" lon="7.19782">
        <ele>455.8</ele>
        <time>2014-05-15T07:09:23Z</time>
      </trkpt>
      <trkpt lat="47.92839" lon="7.19779">
        <ele>456.76</ele>
        <time>2014-05-15T07:09:25Z</time>
      </trkpt>
      <trkpt lat="47.9283" lon="7.19763">
        <ele>453.4</ele>
        <time>2014-05-15T07:09:37Z</time>
      </trkpt>
      <trkpt lat="47.92834" lon="7.19764">
        <ele>451.96</ele>
        <time>2014-05-15T07:09:46Z</time>
      </trkpt>
      <trkpt lat="47.92851" lon="7.19759">
        <ele>448.59</ele>
        <time>2014-05-15T07:10:00Z</time>
      </trkpt>
      <trkpt lat="47.92865" lon="7.1976">
        <ele>448.11</ele>
        <time>2014-05-15T07:10:14Z</time>
      </trkpt>
      <trkpt lat="47.92872" lon="7.19746">
        <ele>444.27</ele>
        <time>2014-05-15T07:10:25Z</time>
      </trkpt>
      <trkpt lat="47.92878" lon="7.19735">
        <ele>439.94</ele>
        <time>2014-05-15T07:10:39Z</time>
      </trkpt>
      <trkpt lat="47.92878" lon="7.19736">
        <ele>439.94</ele>
        <time>2014-05-15T07:10:40Z</time>
      </trkpt>
      <trkpt lat="47.92879" lon="7.19736">
        <ele>441.38</ele>
        <time>2014-05-15T07:10:42Z</time>
      </trkpt>
      <trkpt lat="47.92883" lon="7.19724">
        <ele>438.5</ele>
        <time>2014-05-15T07:10:47Z</time>
      </trkpt>
      <trkpt lat="47.92875" lon="7.19707">
        <ele>438.02</ele>
        <time>2014-05-15T07:10:59Z</time>
      </trkpt>
      <trkpt lat="47.92871" lon="7.19701">
        <ele>436.1</ele>
        <time>2014-05-15T07:11:10Z</time>
      </trkpt>
      <trkpt lat="47.92875" lon="7.19713">
        <ele>437.06</ele>
        <time>2014-05-15T07:11:25Z</time>
      </trkpt>
      <trkpt lat="47.92891" lon="7.19726">
        <ele>438.02</ele>
        <time>2014-05-15T07:11:40Z</time>
      </trkpt>
      <trkpt lat="47.92896" lon="7.19731">
        <ele>438.5</ele>
        <time>2014-05-15T07:11:45Z</time>
      </trkpt>
      <trkpt lat="47.92912" lon="7.19738">
        <ele>438.5</ele>
        <time>2014-05-15T07:12:00Z</time>
      </trkpt>
      <trkpt lat="47.92932" lon="7.19744">
        <ele>439.46</ele>
        <time>2014-05-15T07:12:17Z</time>
      </trkpt>
      <trkpt lat="47.92942" lon="7.19747">
        <ele>439.94</ele>
        <time>2014-05-15T07:12:24Z</time>
      </trkpt>
      <trkpt lat="47.92949" lon="7.19746">
        <ele>438.5</ele>
        <time>2014-05-15T07:12:40Z</time>
      </trkpt>
      <trkpt lat="47.92949" lon="7.19746">
        <ele>439.94</ele>
        <time>2014-05-15T07:12:43Z</time>
      </trkpt>
      <trkpt lat="47.9295" lon="7.19746">
        <ele>437.06</ele>
        <time>2014-05-15T07:12:51Z</time>
      </trkpt>
      <trkpt lat="47.9297" lon="7.19735">
        <ele>438.98</ele>
        <time>2014-05-15T07:13:06Z</time>
      </trkpt>
      <trkpt lat="47.92977" lon="7.1973">
        <ele>438.5</ele>
        <time>2014-05-15T07:13:10Z</time>
      </trkpt>
      <trkpt lat="47.92985" lon="7.19722">
        <ele>434.65</ele>
        <time>2014-05-15T07:13:15Z</time>
      </trkpt>
      <trkpt lat="47.92989" lon="7.19711">
        <ele>431.77</ele>
        <time>2014-05-15T07:13:22Z</time>
      </trkpt>
      <trkpt lat="47.92986" lon="7.19696">
        <ele>428.4</ele>
        <time>2014-05-15T07:13:30Z</time>
      </trkpt>
      <trkpt lat="47.92973" lon="7.19682">
        <ele>430.33</ele>
        <time>2014-05-15T07:13:41Z</time>
      </trkpt>
      <trkpt lat="47.92971" lon="7.19682">
        <ele>426.48</ele>
        <time>2014-05-15T07:13:50Z</time>
      </trkpt>
      <trkpt lat="47.92969" lon="7.19683">
        <ele>430.33</ele>
        <time>2014-05-15T07:13:52Z</time>
      </trkpt>
      <trkpt lat="47.92969" lon="7.19684">
        <ele>428.4</ele>
        <time>2014-05-15T07:13:53Z</time>
      </trkpt>
      <trkpt lat="47.92948" lon="7.19674">
        <ele>427.92</ele>
        <time>2014-05-15T07:14:10Z</time>
      </trkpt>
      <trkpt lat="47.92946" lon="7.19674">
        <ele>426.96</ele>
        <time>2014-05-15T07:14:12Z</time>
      </trkpt>
      <trkpt lat="47.92942" lon="7.1967">
        <ele>425.04</ele>
        <time>2014-05-15T07:14:15Z</time>
      </trkpt>
      <trkpt lat="47.92939" lon="7.19669">
        <ele>424.08</ele>
        <time>2014-05-15T07:14:17Z</time>
      </trkpt>
      <trkpt lat="47.92926" lon="7.19664">
        <ele>423.6</ele>
        <time>2014-05-15T07:14:30Z</time>
      </trkpt>
      <trkpt lat="47.92925" lon="7.19661">
        <ele>420.71</ele>
        <time>2014-05-15T07:14:32Z</time>
      </trkpt>
      <trkpt lat="47.92924" lon="7.1966">
        <ele>421.68</ele>
        <time>2014-05-15T07:14:33Z</time>
      </trkpt>
      <trkpt lat="47.92922" lon="7.19655">
        <ele>424.08</ele>
        <time>2014-05-15T07:14:37Z</time>
      </trkpt>
      <trkpt lat="47.9292" lon="7.19652">
        <ele>422.16</ele>
        <time>2014-05-15T07:14:40Z</time>
      </trkpt>
      <trkpt lat="47.92919" lon="7.1965">
        <ele>421.19</ele>
        <time>2014-05-15T07:14:42Z</time>
      </trkpt>
      <trkpt lat="47.92905" lon="7.1963">
        <ele>417.83</ele>
        <time>2014-05-15T07:14:57Z</time>
      </trkpt>
      <trkpt lat="47.92892" lon="7.19619">
        <ele>414.47</ele>
        <time>2014-05-15T07:15:09Z</time>
      </trkpt>
      <trkpt lat="47.92891" lon="7.19618">
        <ele>413.02</ele>
        <time>2014-05-15T07:15:11Z</time>
      </trkpt>
      <trkpt lat="47.92906" lon="7.19609">
        <ele>413.02</ele>
        <time>2014-05-15T07:15:28Z</time>
      </trkpt>
      <trkpt lat="47.9292" lon="7.196">
        <ele>409.66</ele>
        <time>2014-05-15T07:15:45Z</time>
      </trkpt>
      <trkpt lat="47.92941" lon="7.19597">
        <ele>406.29</ele>
        <time>2014-05-15T07:16:01Z</time>
      </trkpt>
      <trkpt lat="47.92963" lon="7.19576">
        <ele>405.33</ele>
        <time>2014-05-15T07:16:16Z</time>
      </trkpt>
      <trkpt lat="47.92968" lon="7.19566">
        <ele>403.89</ele>
        <time>2014-05-15T07:16:23Z</time>
      </trkpt>
      <trkpt lat="47.92976" lon="7.19541">
        <ele>406.29</ele>
        <time>2014-05-15T07:16:39Z</time>
      </trkpt>
      <trkpt lat="47.92983" lon="7.19523">
        <ele>404.37</ele>
        <time>2014-05-15T07:16:49Z</time>
      </trkpt>
      <trkpt lat="47.9299" lon="7.19508">
        <ele>404.37</ele>
        <time>2014-05-15T07:16:56Z</time>
      </trkpt>
      <trkpt lat="47.92992" lon="7.19482">
        <ele>402.45</ele>
        <time>2014-05-15T07:17:12Z</time>
      </trkpt>
      <trkpt lat="47.92993" lon="7.19467">
        <ele>400.53</ele>
        <time>2014-05-15T07:17:20Z</time>
      </trkpt>
      <trkpt lat="47.92998" lon="7.19453">
        <ele>401.01</ele>
        <time>2014-05-15T07:17:27Z</time>
      </trkpt>
      <trkpt lat="47.93007" lon="7.19423">
        <ele>403.41</ele>
        <time>2014-05-15T07:17:43Z</time>
      </trkpt>
      <trkpt lat="47.93007" lon="7.19414">
        <ele>400.53</ele>
        <time>2014-05-15T07:17:49Z</time>
      </trkpt>
      <trkpt lat="47.93009" lon="7.19408">
        <ele>401.97</ele>
        <time>2014-05-15T07:17:53Z</time>
      </trkpt>
      <trkpt lat="47.93012" lon="7.19402">
        <ele>403.41</ele>
        <time>2014-05-15T07:17:57Z</time>
      </trkpt>
      <trkpt lat="47.93022" lon="7.1939">
        <ele>401.01</ele>
        <time>2014-05-15T07:18:06Z</time>
      </trkpt>
      <trkpt lat="47.93034" lon="7.19374">
        <ele>400.53</ele>
        <time>2014-05-15T07:18:18Z</time>
      </trkpt>
      <trkpt lat="47.93038" lon="7.19368">
        <ele>403.89</ele>
        <time>2014-05-15T07:18:22Z</time>
      </trkpt>
      <trkpt lat="47.9304" lon="7.19364">
        <ele>403.89</ele>
        <time>2014-05-15T07:18:37Z</time>
      </trkpt>
      <trkpt lat="47.93044" lon="7.19366">
        <ele>404.37</ele>
        <time>2014-05-15T07:18:56Z</time>
      </trkpt>
      <trkpt lat="47.93037" lon="7.1936">
        <ele>400.53</ele>
        <time>2014-05-15T07:19:05Z</time>
      </trkpt>
      <trkpt lat="47.93039" lon="7.19352">
        <ele>401.49</ele>
        <time>2014-05-15T07:19:09Z</time>
      </trkpt>
      <trkpt lat="47.9304" lon="7.1935">
        <ele>401.01</ele>
        <time>2014-05-15T07:19:10Z</time>
      </trkpt>
      <trkpt lat="47.93044" lon="7.19343">
        <ele>401.97</ele>
        <time>2014-05-15T07:19:16Z</time>
      </trkpt>
      <trkpt lat="47.93057" lon="7.19326">
        <ele>399.08</ele>
        <time>2014-05-15T07:19:30Z</time>
      </trkpt>
      <trkpt lat="47.93072" lon="7.19307">
        <ele>396.68</ele>
        <time>2014-05-15T07:19:47Z</time>
      </trkpt>
      <trkpt lat="47.93088" lon="7.19288">
        <ele>396.2</ele>
        <time>2014-05-15T07:20:03Z</time>
      </trkpt>
      <trkpt lat="47.93102" lon="7.19268">
        <ele>396.2</ele>
        <time>2014-05-15T07:20:18Z</time>
      </trkpt>
      <trkpt lat="47.9311" lon="7.1926">
        <ele>394.76</ele>
        <time>2014-05-15T07:20:25Z</time>
      </trkpt>
      <trkpt lat="47.93118" lon="7.1925">
        <ele>394.28</ele>
        <time>2014-05-15T07:20:32Z</time>
      </trkpt>
      <trkpt lat="47.93122" lon="7.19246">
        <ele>393.8</ele>
        <time>2014-05-15T07:20:36Z</time>
      </trkpt>
      <trkpt lat="47.93129" lon="7.19234">
        <ele>393.8</ele>
        <time>2014-05-15T07:20:44Z</time>
      </trkpt>
      <trkpt lat="47.93139" lon="7.1922">
        <ele>388.99</ele>
        <time>2014-05-15T07:20:56Z</time>
      </trkpt>
      <trkpt lat="47.9314" lon="7.19219">
        <ele>394.28</ele>
        <time>2014-05-15T07:20:57Z</time>
      </trkpt>
      <trkpt lat="47.93147" lon="7.1921">
        <ele>390.91</ele>
        <time>2014-05-15T07:21:04Z</time>
      </trkpt>
      <trkpt lat="47.93152" lon="7.19202">
        <ele>390.43</ele>
        <time>2014-05-15T07:21:10Z</time>
      </trkpt>
      <trkpt lat="47.93159" lon="7.19192">
        <ele>388.51</ele>
        <time>2014-05-15T07:21:19Z</time>
      </trkpt>
      <trkpt lat="47.93167" lon="7.1918">
        <ele>389.95</ele>
        <time>2014-05-15T07:21:34Z</time>
      </trkpt>
      <trkpt lat="47.93172" lon="7.1917">
        <ele>386.59</ele>
        <time>2014-05-15T07:21:40Z</time>
      </trkpt>
      <trkpt lat="47.93185" lon="7.19152">
        <ele>387.07</ele>
        <time>2014-05-15T07:21:53Z</time>
      </trkpt>
      <trkpt lat="47.9319" lon="7.19144">
        <ele>388.99</ele>
        <time>2014-05-15T07:21:58Z</time>
      </trkpt>
      <trkpt lat="47.93196" lon="7.19136">
        <ele>387.07</ele>
        <time>2014-05-15T07:22:04Z</time>
      </trkpt>
      <trkpt lat="47.93206" lon="7.19124">
        <ele>386.11</ele>
        <time>2014-05-15T07:22:13Z</time>
      </trkpt>
      <trkpt lat="47.93218" lon="7.19112">
        <ele>386.11</ele>
        <time>2014-05-15T07:22:25Z</time>
      </trkpt>
      <trkpt lat="47.93223" lon="7.19106">
        <ele>384.18</ele>
        <time>2014-05-15T07:22:30Z</time>
      </trkpt>
      <trkpt lat="47.93231" lon="7.19099">
        <ele>380.34</ele>
        <time>2014-05-15T07:22:36Z</time>
      </trkpt>
      <trkpt lat="47.93232" lon="7.19098">
        <ele>381.3</ele>
        <time>2014-05-15T07:22:37Z</time>
      </trkpt>
      <trkpt lat="47.93249" lon="7.19082">
        <ele>382.74</ele>
        <time>2014-05-15T07:22:54Z</time>
      </trkpt>
      <trkpt lat="47.93254" lon="7.19077">
        <ele>378.9</ele>
        <time>2014-05-15T07:22:58Z</time>
      </trkpt>
      <trkpt lat="47.93269" lon="7.19062">
        <ele>377.45</ele>
        <time>2014-05-15T07:23:16Z</time>
      </trkpt>
      <trkpt lat="47.93285" lon="7.19048">
        <ele>376.01</ele>
        <time>2014-05-15T07:23:30Z</time>
      </trkpt>
      <trkpt lat="47.93296" lon="7.19036">
        <ele>372.65</ele>
        <time>2014-05-15T07:23:40Z</time>
      </trkpt>
      <trkpt lat="47.93307" lon="7.19022">
        <ele>374.57</ele>
        <time>2014-05-15T07:23:51Z</time>
      </trkpt>
      <trkpt lat="47.93309" lon="7.1902">
        <ele>373.13</ele>
        <time>2014-05-15T07:23:53Z</time>
      </trkpt>
      <trkpt lat="47.93311" lon="7.19017">
        <ele>372.17</ele>
        <time>2014-05-15T07:23:55Z</time>
      </trkpt>
      <trkpt lat="47.93321" lon="7.19005">
        <ele>371.69</ele>
        <time>2014-05-15T07:24:04Z</time>
      </trkpt>
      <trkpt lat="47.93325" lon="7.18975">
        <ele>368.8</ele>
        <time>2014-05-15T07:24:20Z</time>
      </trkpt>
      <trkpt lat="47.93325" lon="7.18974">
        <ele>367.84</ele>
        <time>2014-05-15T07:24:23Z</time>
      </trkpt>
      <trkpt lat="47.93325" lon="7.18969">
        <ele>367.36</ele>
        <time>2014-05-15T07:24:25Z</time>
      </trkpt>
      <trkpt lat="47.93327" lon="7.18934">
        <ele>365.44</ele>
        <time>2014-05-15T07:24:43Z</time>
      </trkpt>
      <trkpt lat="47.93327" lon="7.18931">
        <ele>364</ele>
        <time>2014-05-15T07:24:45Z</time>
      </trkpt>
      <trkpt lat="47.93329" lon="7.18912">
        <ele>366.4</ele>
        <time>2014-05-15T07:24:54Z</time>
      </trkpt>
      <trkpt lat="47.93332" lon="7.18901">
        <ele>364</ele>
        <time>2014-05-15T07:24:59Z</time>
      </trkpt>
      <trkpt lat="47.93334" lon="7.18888">
        <ele>362.07</ele>
        <time>2014-05-15T07:25:05Z</time>
      </trkpt>
      <trkpt lat="47.93335" lon="7.18883">
        <ele>360.15</ele>
        <time>2014-05-15T07:25:08Z</time>
      </trkpt>
      <trkpt lat="47.93339" lon="7.18873">
        <ele>363.52</ele>
        <time>2014-05-15T07:25:13Z</time>
      </trkpt>
      <trkpt lat="47.93339" lon="7.18871">
        <ele>363.52</ele>
        <time>2014-05-15T07:25:14Z</time>
      </trkpt>
      <trkpt lat="47.93341" lon="7.18862">
        <ele>361.11</ele>
        <time>2014-05-15T07:25:19Z</time>
      </trkpt>
      <trkpt lat="47.93341" lon="7.18852">
        <ele>358.23</ele>
        <time>2014-05-15T07:25:24Z</time>
      </trkpt>
      <trkpt lat="47.93342" lon="7.18844">
        <ele>360.63</ele>
        <time>2014-05-15T07:25:28Z</time>
      </trkpt>
      <trkpt lat="47.93347" lon="7.18819">
        <ele>358.23</ele>
        <time>2014-05-15T07:25:42Z</time>
      </trkpt>
      <trkpt lat="47.93348" lon="7.1881">
        <ele>354.38</ele>
        <time>2014-05-15T07:25:47Z</time>
      </trkpt>
      <trkpt lat="47.93349" lon="7.18808">
        <ele>354.86</ele>
        <time>2014-05-15T07:25:48Z</time>
      </trkpt>
      <trkpt lat="47.9335" lon="7.18798">
        <ele>357.27</ele>
        <time>2014-05-15T07:25:54Z</time>
      </trkpt>
      <trkpt lat="47.93351" lon="7.18786">
        <ele>356.79</ele>
        <time>2014-05-15T07:26:01Z</time>
      </trkpt>
      <trkpt lat="47.93354" lon="7.18783">
        <ele>353.9</ele>
        <time>2014-05-15T07:26:04Z</time>
      </trkpt>
      <trkpt lat="47.93362" lon="7.18775">
        <ele>356.79</ele>
        <time>2014-05-15T07:26:13Z</time>
      </trkpt>
      <trkpt lat="47.93363" lon="7.18774">
        <ele>356.79</ele>
        <time>2014-05-15T07:26:31Z</time>
      </trkpt>
      <trkpt lat="47.93356" lon="7.18772">
        <ele>355.34</ele>
        <time>2014-05-15T07:26:36Z</time>
      </trkpt>
      <trkpt lat="47.93346" lon="7.1878">
        <ele>354.86</ele>
        <time>2014-05-15T07:26:44Z</time>
      </trkpt>
      <trkpt lat="47.93332" lon="7.18793">
        <ele>355.34</ele>
        <time>2014-05-15T07:26:56Z</time>
      </trkpt>
      <trkpt lat="47.93331" lon="7.18794">
        <ele>355.34</ele>
        <time>2014-05-15T07:26:57Z</time>
      </trkpt>
      <trkpt lat="47.93321" lon="7.1881">
        <ele>351.5</ele>
        <time>2014-05-15T07:27:07Z</time>
      </trkpt>
      <trkpt lat="47.9332" lon="7.18811">
        <ele>351.5</ele>
        <time>2014-05-15T07:27:08Z</time>
      </trkpt>
      <trkpt lat="47.93309" lon="7.18829">
        <ele>353.9</ele>
        <time>2014-05-15T07:27:20Z</time>
      </trkpt>
      <trkpt lat="47.93305" lon="7.18837">
        <ele>351.98</ele>
        <time>2014-05-15T07:27:25Z</time>
      </trkpt>
      <trkpt lat="47.93302" lon="7.18841">
        <ele>351.02</ele>
        <time>2014-05-15T07:27:28Z</time>
      </trkpt>
      <trkpt lat="47.93294" lon="7.18858">
        <ele>351.98</ele>
        <time>2014-05-15T07:27:39Z</time>
      </trkpt>
      <trkpt lat="47.93286" lon="7.18871">
        <ele>352.46</ele>
        <time>2014-05-15T07:27:53Z</time>
      </trkpt>
      <trkpt lat="47.93278" lon="7.18883">
        <ele>352.94</ele>
        <time>2014-05-15T07:28:03Z</time>
      </trkpt>
      <trkpt lat="47.93274" lon="7.18883">
        <ele>351.02</ele>
        <time>2014-05-15T07:28:06Z</time>
      </trkpt>
      <trkpt lat="47.93268" lon="7.18883">
        <ele>349.58</ele>
        <time>2014-05-15T07:28:11Z</time>
      </trkpt>
      <trkpt lat="47.93257" lon="7.18873">
        <ele>350.54</ele>
        <time>2014-05-15T07:28:20Z</time>
      </trkpt>
      <trkpt lat="47.93254" lon="7.18875">
        <ele>349.58</ele>
        <time>2014-05-15T07:28:23Z</time>
      </trkpt>
      <trkpt lat="47.93249" lon="7.18878">
        <ele>348.13</ele>
        <time>2014-05-15T07:28:27Z</time>
      </trkpt>
      <trkpt lat="47.93238" lon="7.18887">
        <ele>349.1</ele>
        <time>2014-05-15T07:28:34Z</time>
      </trkpt>
      <trkpt lat="47.93229" lon="7.18897">
        <ele>347.65</ele>
        <time>2014-05-15T07:28:42Z</time>
      </trkpt>
      <trkpt lat="47.93225" lon="7.189">
        <ele>346.21</ele>
        <time>2014-05-15T07:28:45Z</time>
      </trkpt>
      <trkpt lat="47.93215" lon="7.18911">
        <ele>346.69</ele>
        <time>2014-05-15T07:28:54Z</time>
      </trkpt>
      <trkpt lat="47.932" lon="7.18926">
        <ele>344.77</ele>
        <time>2014-05-15T07:29:07Z</time>
      </trkpt>
      <trkpt lat="47.93188" lon="7.18936">
        <ele>346.21</ele>
        <time>2014-05-15T07:29:17Z</time>
      </trkpt>
      <trkpt lat="47.93187" lon="7.18937">
        <ele>347.17</ele>
        <time>2014-05-15T07:29:18Z</time>
      </trkpt>
      <trkpt lat="47.93182" lon="7.18942">
        <ele>345.25</ele>
        <time>2014-05-15T07:29:22Z</time>
      </trkpt>
      <trkpt lat="47.93179" lon="7.18944">
        <ele>343.81</ele>
        <time>2014-05-15T07:29:24Z</time>
      </trkpt>
      <trkpt lat="47.93163" lon="7.18958">
        <ele>343.81</ele>
        <time>2014-05-15T07:29:38Z</time>
      </trkpt>
      <trkpt lat="47.93157" lon="7.18963">
        <ele>342.37</ele>
        <time>2014-05-15T07:29:43Z</time>
      </trkpt>
      <trkpt lat="47.93151" lon="7.18969">
        <ele>343.81</ele>
        <time>2014-05-15T07:29:48Z</time>
      </trkpt>
      <trkpt lat="47.93139" lon="7.1898">
        <ele>341.41</ele>
        <time>2014-05-15T07:29:57Z</time>
      </trkpt>
      <trkpt lat="47.93138" lon="7.18981">
        <ele>341.41</ele>
        <time>2014-05-15T07:29:58Z</time>
      </trkpt>
      <trkpt lat="47.93129" lon="7.18987">
        <ele>344.29</ele>
        <time>2014-05-15T07:30:06Z</time>
      </trkpt>
      <trkpt lat="47.93118" lon="7.18995">
        <ele>340.92</ele>
        <time>2014-05-15T07:30:15Z</time>
      </trkpt>
      <trkpt lat="47.93108" lon="7.19006">
        <ele>344.29</ele>
        <time>2014-05-15T07:30:23Z</time>
      </trkpt>
      <trkpt lat="47.93098" lon="7.19015">
        <ele>340.92</ele>
        <time>2014-05-15T07:30:32Z</time>
      </trkpt>
      <trkpt lat="47.93088" lon="7.19024">
        <ele>342.85</ele>
        <time>2014-05-15T07:30:39Z</time>
      </trkpt>
      <trkpt lat="47.93077" lon="7.19035">
        <ele>339.96</ele>
        <time>2014-05-15T07:30:48Z</time>
      </trkpt>
      <trkpt lat="47.93076" lon="7.19036">
        <ele>339.96</ele>
        <time>2014-05-15T07:30:49Z</time>
      </trkpt>
      <trkpt lat="47.93068" lon="7.19044">
        <ele>343.33</ele>
        <time>2014-05-15T07:30:55Z</time>
      </trkpt>
      <trkpt lat="47.93067" lon="7.19045">
        <ele>343.81</ele>
        <time>2014-05-15T07:30:56Z</time>
      </trkpt>
      <trkpt lat="47.93063" lon="7.1905">
        <ele>342.37</ele>
        <time>2014-05-15T07:30:59Z</time>
      </trkpt>
      <trkpt lat="47.93058" lon="7.19054">
        <ele>339.96</ele>
        <time>2014-05-15T07:31:03Z</time>
      </trkpt>
      <trkpt lat="47.9305" lon="7.19066">
        <ele>341.41</ele>
        <time>2014-05-15T07:31:16Z</time>
      </trkpt>
      <trkpt lat="47.9305" lon="7.19066">
        <ele>340.44</ele>
        <time>2014-05-15T07:31:18Z</time>
      </trkpt>
      <trkpt lat="47.93049" lon="7.19063">
        <ele>339.96</ele>
        <time>2014-05-15T07:31:20Z</time>
      </trkpt>
      <trkpt lat="47.93047" lon="7.1906">
        <ele>339</ele>
        <time>2014-05-15T07:31:22Z</time>
      </trkpt>
      <trkpt lat="47.93047" lon="7.19048">
        <ele>340.44</ele>
        <time>2014-05-15T07:31:28Z</time>
      </trkpt>
      <trkpt lat="47.93046" lon="7.19028">
        <ele>338.52</ele>
        <time>2014-05-15T07:31:38Z</time>
      </trkpt>
      <trkpt lat="47.93041" lon="7.19015">
        <ele>341.41</ele>
        <time>2014-05-15T07:31:45Z</time>
      </trkpt>
      <trkpt lat="47.93036" lon="7.19004">
        <ele>339</ele>
        <time>2014-05-15T07:31:51Z</time>
      </trkpt>
      <trkpt lat="47.93028" lon="7.18987">
        <ele>339.96</ele>
        <time>2014-05-15T07:32:00Z</time>
      </trkpt>
      <trkpt lat="47.93023" lon="7.18975">
        <ele>338.04</ele>
        <time>2014-05-15T07:32:06Z</time>
      </trkpt>
      <trkpt lat="47.93015" lon="7.18947">
        <ele>338.52</ele>
        <time>2014-05-15T07:32:21Z</time>
      </trkpt>
      <trkpt lat="47.93013" lon="7.18929">
        <ele>339</ele>
        <time>2014-05-15T07:32:33Z</time>
      </trkpt>
      <trkpt lat="47.93013" lon="7.18914">
        <ele>338.04</ele>
        <time>2014-05-15T07:32:47Z</time>
      </trkpt>
      <trkpt lat="47.93002" lon="7.18907">
        <ele>338.04</ele>
        <time>2014-05-15T07:32:55Z</time>
      </trkpt>
      <trkpt lat="47.92995" lon="7.18904">
        <ele>337.08</ele>
        <time>2014-05-15T07:33:00Z</time>
      </trkpt>
      <trkpt lat="47.92991" lon="7.18896">
        <ele>339</ele>
        <time>2014-05-15T07:33:05Z</time>
      </trkpt>
      <trkpt lat="47.92983" lon="7.18883">
        <ele>338.04</ele>
        <time>2014-05-15T07:33:15Z</time>
      </trkpt>
      <trkpt lat="47.92978" lon="7.18879">
        <ele>339</ele>
        <time>2014-05-15T07:33:19Z</time>
      </trkpt>
      <trkpt lat="47.92973" lon="7.18868">
        <ele>338.52</ele>
        <time>2014-05-15T07:33:26Z</time>
      </trkpt>
      <trkpt lat="47.92967" lon="7.18862">
        <ele>338.04</ele>
        <time>2014-05-15T07:33:31Z</time>
      </trkpt>
      <trkpt lat="47.92963" lon="7.18858">
        <ele>339.48</ele>
        <time>2014-05-15T07:33:34Z</time>
      </trkpt>
      <trkpt lat="47.92959" lon="7.1885">
        <ele>338.52</ele>
        <time>2014-05-15T07:33:38Z</time>
      </trkpt>
      <trkpt lat="47.92958" lon="7.18845">
        <ele>337.56</ele>
        <time>2014-05-15T07:33:40Z</time>
      </trkpt>
      <trkpt lat="47.92952" lon="7.18832">
        <ele>339.48</ele>
        <time>2014-05-15T07:33:47Z</time>
      </trkpt>
      <trkpt lat="47.92943" lon="7.18813">
        <ele>336.6</ele>
        <time>2014-05-15T07:33:59Z</time>
      </trkpt>
      <trkpt lat="47.92939" lon="7.18806">
        <ele>340.44</ele>
        <time>2014-05-15T07:34:03Z</time>
      </trkpt>
      <trkpt lat="47.92938" lon="7.18804">
        <ele>339.96</ele>
        <time>2014-05-15T07:34:04Z</time>
      </trkpt>
      <trkpt lat="47.92922" lon="7.18792">
        <ele>338.52</ele>
        <time>2014-05-15T07:34:18Z</time>
      </trkpt>
      <trkpt lat="47.92916" lon="7.18779">
        <ele>336.6</ele>
        <time>2014-05-15T07:34:25Z</time>
      </trkpt>
      <trkpt lat="47.92914" lon="7.18772">
        <ele>338.52</ele>
        <time>2014-05-15T07:34:28Z</time>
      </trkpt>
      <trkpt lat="47.92913" lon="7.18767">
        <ele>339.48</ele>
        <time>2014-05-15T07:34:30Z</time>
      </trkpt>
      <trkpt lat="47.92911" lon="7.18758">
        <ele>338.52</ele>
        <time>2014-05-15T07:34:34Z</time>
      </trkpt>
      <trkpt lat="47.92907" lon="7.18754">
        <ele>339</ele>
        <time>2014-05-15T07:34:37Z</time>
      </trkpt>
      <trkpt lat="47.92898" lon="7.18753">
        <ele>339</ele>
        <time>2014-05-15T07:34:43Z</time>
      </trkpt>
      <trkpt lat="47.92886" lon="7.18748">
        <ele>339.48</ele>
        <time>2014-05-15T07:34:52Z</time>
      </trkpt>
      <trkpt lat="47.92878" lon="7.18743">
        <ele>337.56</ele>
        <time>2014-05-15T07:34:58Z</time>
      </trkpt>
      <trkpt lat="47.92875" lon="7.18741">
        <ele>336.6</ele>
        <time>2014-05-15T07:35:00Z</time>
      </trkpt>
      <trkpt lat="47.92871" lon="7.18737">
        <ele>338.52</ele>
        <time>2014-05-15T07:35:03Z</time>
      </trkpt>
      <trkpt lat="47.92869" lon="7.18735">
        <ele>339</ele>
        <time>2014-05-15T07:35:05Z</time>
      </trkpt>
      <trkpt lat="47.92852" lon="7.18727">
        <ele>339.48</ele>
        <time>2014-05-15T07:35:18Z</time>
      </trkpt>
      <trkpt lat="47.92849" lon="7.18724">
        <ele>337.08</ele>
        <time>2014-05-15T07:35:21Z</time>
      </trkpt>
      <trkpt lat="47.92846" lon="7.1872">
        <ele>338.04</ele>
        <time>2014-05-15T07:35:25Z</time>
      </trkpt>
      <trkpt lat="47.92845" lon="7.1872">
        <ele>339</ele>
        <time>2014-05-15T07:35:26Z</time>
      </trkpt>
      <trkpt lat="47.92842" lon="7.18716">
        <ele>338.52</ele>
        <time>2014-05-15T07:35:29Z</time>
      </trkpt>
      <trkpt lat="47.92839" lon="7.1871">
        <ele>338.04</ele>
        <time>2014-05-15T07:35:33Z</time>
      </trkpt>
      <trkpt lat="47.92838" lon="7.18708">
        <ele>337.08</ele>
        <time>2014-05-15T07:35:34Z</time>
      </trkpt>
      <trkpt lat="47.92834" lon="7.18704">
        <ele>336.12</ele>
        <time>2014-05-15T07:35:39Z</time>
      </trkpt>
      <trkpt lat="47.9283" lon="7.18683">
        <ele>339.48</ele>
        <time>2014-05-15T07:35:54Z</time>
      </trkpt>
      <trkpt lat="47.92827" lon="7.18679">
        <ele>338.04</ele>
        <time>2014-05-15T07:36:03Z</time>
      </trkpt>
      <trkpt lat="47.92826" lon="7.18656">
        <ele>337.56</ele>
        <time>2014-05-15T07:36:16Z</time>
      </trkpt>
      <trkpt lat="47.92816" lon="7.18634">
        <ele>339</ele>
        <time>2014-05-15T07:36:29Z</time>
      </trkpt>
      <trkpt lat="47.92811" lon="7.18625">
        <ele>338.04</ele>
        <time>2014-05-15T07:36:34Z</time>
      </trkpt>
      <trkpt lat="47.9281" lon="7.18624">
        <ele>337.56</ele>
        <time>2014-05-15T07:36:35Z</time>
      </trkpt>
      <trkpt lat="47.92794" lon="7.18601">
        <ele>338.52</ele>
        <time>2014-05-15T07:36:50Z</time>
      </trkpt>
      <trkpt lat="47.92791" lon="7.18593">
        <ele>335.16</ele>
        <time>2014-05-15T07:36:56Z</time>
      </trkpt>
      <trkpt lat="47.92787" lon="7.18589">
        <ele>338.52</ele>
        <time>2014-05-15T07:36:59Z</time>
      </trkpt>
      <trkpt lat="47.92773" lon="7.18578">
        <ele>334.68</ele>
        <time>2014-05-15T07:37:09Z</time>
      </trkpt>
      <trkpt lat="47.92771" lon="7.18576">
        <ele>335.64</ele>
        <time>2014-05-15T07:37:10Z</time>
      </trkpt>
      <trkpt lat="47.92755" lon="7.18562">
        <ele>336.6</ele>
        <time>2014-05-15T07:37:20Z</time>
      </trkpt>
      <trkpt lat="47.9275" lon="7.18555">
        <ele>337.56</ele>
        <time>2014-05-15T07:37:25Z</time>
      </trkpt>
      <trkpt lat="47.92737" lon="7.18542">
        <ele>335.16</ele>
        <time>2014-05-15T07:37:35Z</time>
      </trkpt>
      <trkpt lat="47.92732" lon="7.18539">
        <ele>337.56</ele>
        <time>2014-05-15T07:37:38Z</time>
      </trkpt>
      <trkpt lat="47.9272" lon="7.18529">
        <ele>337.08</ele>
        <time>2014-05-15T07:37:48Z</time>
      </trkpt>
      <trkpt lat="47.92711" lon="7.18538">
        <ele>335.64</ele>
        <time>2014-05-15T07:37:55Z</time>
      </trkpt>
      <trkpt lat="47.92707" lon="7.18549">
        <ele>337.08</ele>
        <time>2014-05-15T07:38:01Z</time>
      </trkpt>
      <trkpt lat="47.92701" lon="7.18557">
        <ele>334.2</ele>
        <time>2014-05-15T07:38:06Z</time>
      </trkpt>
      <trkpt lat="47.927" lon="7.18559">
        <ele>334.2</ele>
        <time>2014-05-15T07:38:07Z</time>
      </trkpt>
      <trkpt lat="47.92696" lon="7.18564">
        <ele>337.56</ele>
        <time>2014-05-15T07:38:10Z</time>
      </trkpt>
      <trkpt lat="47.92692" lon="7.18569">
        <ele>336.6</ele>
        <time>2014-05-15T07:38:13Z</time>
      </trkpt>
      <trkpt lat="47.92692" lon="7.18573">
        <ele>335.16</ele>
        <time>2014-05-15T07:38:16Z</time>
      </trkpt>
      <trkpt lat="47.92691" lon="7.18574">
        <ele>335.16</ele>
        <time>2014-05-15T07:38:17Z</time>
      </trkpt>
      <trkpt lat="47.92683" lon="7.18579">
        <ele>335.16</ele>
        <time>2014-05-15T07:38:22Z</time>
      </trkpt>
      <trkpt lat="47.92678" lon="7.18584">
        <ele>336.6</ele>
        <time>2014-05-15T07:38:25Z</time>
      </trkpt>
      <trkpt lat="47.92672" lon="7.18593">
        <ele>333.23</ele>
        <time>2014-05-15T07:38:30Z</time>
      </trkpt>
      <trkpt lat="47.92668" lon="7.18599">
        <ele>336.6</ele>
        <time>2014-05-15T07:38:34Z</time>
      </trkpt>
      <trkpt lat="47.92667" lon="7.186">
        <ele>336.6</ele>
        <time>2014-05-15T07:38:35Z</time>
      </trkpt>
      <trkpt lat="47.92665" lon="7.18603">
        <ele>335.16</ele>
        <time>2014-05-15T07:38:37Z</time>
      </trkpt>
      <trkpt lat="47.92648" lon="7.18619">
        <ele>333.71</ele>
        <time>2014-05-15T07:38:49Z</time>
      </trkpt>
      <trkpt lat="47.92646" lon="7.18625">
        <ele>335.64</ele>
        <time>2014-05-15T07:38:53Z</time>
      </trkpt>
      <trkpt lat="47.9264" lon="7.18636">
        <ele>333.23</ele>
        <time>2014-05-15T07:39:00Z</time>
      </trkpt>
      <trkpt lat="47.92639" lon="7.18642">
        <ele>335.64</ele>
        <time>2014-05-15T07:39:04Z</time>
      </trkpt>
      <trkpt lat="47.92637" lon="7.18652">
        <ele>335.64</ele>
        <time>2014-05-15T07:39:19Z</time>
      </trkpt>
      <trkpt lat="47.92636" lon="7.18653">
        <ele>336.6</ele>
        <time>2014-05-15T07:39:29Z</time>
      </trkpt>
      <trkpt lat="47.92636" lon="7.18653">
        <ele>334.68</ele>
        <time>2014-05-15T07:39:31Z</time>
      </trkpt>
      <trkpt lat="47.92641" lon="7.18665">
        <ele>334.68</ele>
        <time>2014-05-15T07:39:46Z</time>
      </trkpt>
      <trkpt lat="47.92642" lon="7.18669">
        <ele>335.16</ele>
        <time>2014-05-15T07:40:11Z</time>
      </trkpt>
      <trkpt lat="47.92642" lon="7.18671">
        <ele>336.12</ele>
        <time>2014-05-15T07:40:23Z</time>
      </trkpt>
      <trkpt lat="47.92643" lon="7.18668">
        <ele>335.64</ele>
        <time>2014-05-15T07:40:42Z</time>
      </trkpt>
      <trkpt lat="47.92643" lon="7.18666">
        <ele>335.16</ele>
        <time>2014-05-15T07:41:08Z</time>
      </trkpt>
      <trkpt lat="47.92642" lon="7.18667">
        <ele>335.64</ele>
        <time>2014-05-15T07:41:45Z</time>
      </trkpt>
      <trkpt lat="47.92641" lon="7.18667">
        <ele>335.16</ele>
        <time>2014-05-15T07:42:05Z</time>
      </trkpt>
      <trkpt lat="47.92641" lon="7.1866">
        <ele>335.64</ele>
        <time>2014-05-15T07:42:25Z</time>
      </trkpt>
      <trkpt lat="47.92641" lon="7.1866">
        <ele>335.16</ele>
        <time>2014-05-15T07:42:57Z</time>
      </trkpt>
      <trkpt lat="47.92643" lon="7.18654">
        <ele>335.16</ele>
        <time>2014-05-15T07:43:01Z</time>
      </trkpt>
      <trkpt lat="47.92642" lon="7.18645">
        <ele>334.68</ele>
        <time>2014-05-15T07:43:05Z</time>
      </trkpt>
      <trkpt lat="47.92644" lon="7.18642">
        <ele>335.16</ele>
        <time>2014-05-15T07:43:07Z</time>
      </trkpt>
      <trkpt lat="47.92654" lon="7.18621">
        <ele>336.12</ele>
        <time>2014-05-15T07:43:19Z</time>
      </trkpt>
      <trkpt lat="47.92663" lon="7.18609">
        <ele>335.64</ele>
        <time>2014-05-15T07:43:26Z</time>
      </trkpt>
      <trkpt lat="47.9268" lon="7.18587">
        <ele>336.6</ele>
        <time>2014-05-15T07:43:41Z</time>
      </trkpt>
      <trkpt lat="47.92689" lon="7.1858">
        <ele>335.16</ele>
        <time>2014-05-15T07:43:48Z</time>
      </trkpt>
      <trkpt lat="47.92699" lon="7.18567">
        <ele>338.04</ele>
        <time>2014-05-15T07:43:57Z</time>
      </trkpt>
      <trkpt lat="47.92713" lon="7.18544">
        <ele>339.48</ele>
        <time>2014-05-15T07:44:12Z</time>
      </trkpt>
      <trkpt lat="47.92716" lon="7.18542">
        <ele>338.52</ele>
        <time>2014-05-15T07:44:15Z</time>
      </trkpt>
      <trkpt lat="47.92729" lon="7.18541">
        <ele>339.48</ele>
        <time>2014-05-15T07:44:25Z</time>
      </trkpt>
      <trkpt lat="47.92738" lon="7.18546">
        <ele>337.08</ele>
        <time>2014-05-15T07:44:35Z</time>
      </trkpt>
      <trkpt lat="47.92754" lon="7.18571">
        <ele>340.44</ele>
        <time>2014-05-15T07:44:47Z</time>
      </trkpt>
      <trkpt lat="47.92755" lon="7.18572">
        <ele>339.96</ele>
        <time>2014-05-15T07:44:48Z</time>
      </trkpt>
      <trkpt lat="47.92762" lon="7.18577">
        <ele>337.56</ele>
        <time>2014-05-15T07:44:53Z</time>
      </trkpt>
      <trkpt lat="47.92766" lon="7.18579">
        <ele>339.48</ele>
        <time>2014-05-15T07:45:00Z</time>
      </trkpt>
      <trkpt lat="47.92777" lon="7.18591">
        <ele>339.48</ele>
        <time>2014-05-15T07:45:14Z</time>
      </trkpt>
      <trkpt lat="47.92786" lon="7.18598">
        <ele>339.48</ele>
        <time>2014-05-15T07:45:21Z</time>
      </trkpt>
      <trkpt lat="47.92789" lon="7.186">
        <ele>340.44</ele>
        <time>2014-05-15T07:45:23Z</time>
      </trkpt>
      <trkpt lat="47.92799" lon="7.18608">
        <ele>339.96</ele>
        <time>2014-05-15T07:45:29Z</time>
      </trkpt>
      <trkpt lat="47.92806" lon="7.1862">
        <ele>338.04</ele>
        <time>2014-05-15T07:45:35Z</time>
      </trkpt>
      <trkpt lat="47.92813" lon="7.18627">
        <ele>339.96</ele>
        <time>2014-05-15T07:45:40Z</time>
      </trkpt>
      <trkpt lat="47.92822" lon="7.18659">
        <ele>339.48</ele>
        <time>2014-05-15T07:45:52Z</time>
      </trkpt>
      <trkpt lat="47.92822" lon="7.18661">
        <ele>339.48</ele>
        <time>2014-05-15T07:45:53Z</time>
      </trkpt>
      <trkpt lat="47.92823" lon="7.18663">
        <ele>339.48</ele>
        <time>2014-05-15T07:46:06Z</time>
      </trkpt>
      <trkpt lat="47.92823" lon="7.1866">
        <ele>339.48</ele>
        <time>2014-05-15T07:46:09Z</time>
      </trkpt>
      <trkpt lat="47.92822" lon="7.18649">
        <ele>339.96</ele>
        <time>2014-05-15T07:46:30Z</time>
      </trkpt>
      <trkpt lat="47.92819" lon="7.18653">
        <ele>333.23</ele>
        <time>2014-05-15T07:46:34Z</time>
      </trkpt>
      <trkpt lat="47.92819" lon="7.18654">
        <ele>341.41</ele>
        <time>2014-05-15T07:46:35Z</time>
      </trkpt>
      <trkpt lat="47.92818" lon="7.18655">
        <ele>339.48</ele>
        <time>2014-05-15T07:46:36Z</time>
      </trkpt>
      <trkpt lat="47.9281" lon="7.18653">
        <ele>339</ele>
        <time>2014-05-15T07:46:45Z</time>
      </trkpt>
      <trkpt lat="47.92825" lon="7.18645">
        <ele>339</ele>
        <time>2014-05-15T07:46:52Z</time>
      </trkpt>
      <trkpt lat="47.92826" lon="7.18643">
        <ele>339.96</ele>
        <time>2014-05-15T07:46:54Z</time>
      </trkpt>
      <trkpt lat="47.92827" lon="7.18641">
        <ele>339.96</ele>
        <time>2014-05-15T07:46:55Z</time>
      </trkpt>
      <trkpt lat="47.9283" lon="7.1864">
        <ele>339.48</ele>
        <time>2014-05-15T07:46:58Z</time>
      </trkpt>
      <trkpt lat="47.92835" lon="7.18638">
        <ele>340.92</ele>
        <time>2014-05-15T07:47:03Z</time>
      </trkpt>
      <trkpt lat="47.92838" lon="7.18637">
        <ele>339.96</ele>
        <time>2014-05-15T07:47:20Z</time>
      </trkpt>
      <trkpt lat="47.9284" lon="7.18636">
        <ele>341.41</ele>
        <time>2014-05-15T07:47:36Z</time>
      </trkpt>
      <trkpt lat="47.92849" lon="7.18636">
        <ele>341.89</ele>
        <time>2014-05-15T07:47:43Z</time>
      </trkpt>
      <trkpt lat="47.92845" lon="7.18626">
        <ele>339.48</ele>
        <time>2014-05-15T07:48:00Z</time>
      </trkpt>
      <trkpt lat="47.92831" lon="7.18622">
        <ele>339.48</ele>
        <time>2014-05-15T07:48:33Z</time>
      </trkpt>
      <trkpt lat="47.92832" lon="7.18622">
        <ele>339.96</ele>
        <time>2014-05-15T07:49:10Z</time>
      </trkpt>
      <trkpt lat="47.92834" lon="7.18627">
        <ele>339.96</ele>
        <time>2014-05-15T07:50:00Z</time>
      </trkpt>
      <trkpt lat="47.92836" lon="7.18627">
        <ele>340.44</ele>
        <time>2014-05-15T07:50:15Z</time>
      </trkpt>
      <trkpt lat="47.92835" lon="7.18635">
        <ele>340.44</ele>
        <time>2014-05-15T07:50:37Z</time>
      </trkpt>
      <trkpt lat="47.92836" lon="7.18631">
        <ele>339.96</ele>
        <time>2014-05-15T07:51:02Z</time>
      </trkpt>
      <trkpt lat="47.9284" lon="7.18641">
        <ele>340.44</ele>
        <time>2014-05-15T07:51:26Z</time>
      </trkpt>
      <trkpt lat="47.92836" lon="7.18628">
        <ele>339.96</ele>
        <time>2014-05-15T07:51:48Z</time>
      </trkpt>
      <trkpt lat="47.92833" lon="7.18621">
        <ele>340.44</ele>
        <time>2014-05-15T07:51:55Z</time>
      </trkpt>
      <trkpt lat="47.92835" lon="7.18623">
        <ele>340.44</ele>
        <time>2014-05-15T07:52:11Z</time>
      </trkpt>
      <trkpt lat="47.92835" lon="7.18624">
        <ele>339.96</ele>
        <time>2014-05-15T07:52:45Z</time>
      </trkpt>
      <trkpt lat="47.92838" lon="7.18628">
        <ele>339.96</ele>
        <time>2014-05-15T07:53:23Z</time>
      </trkpt>
      <trkpt lat="47.92838" lon="7.18628">
        <ele>339.96</ele>
        <time>2014-05-15T07:54:03Z</time>
      </trkpt>
      <trkpt lat="47.92836" lon="7.18625">
        <ele>339.96</ele>
        <time>2014-05-15T07:54:43Z</time>
      </trkpt>
      <trkpt lat="47.92836" lon="7.18625">
        <ele>339.96</ele>
        <time>2014-05-15T07:55:22Z</time>
      </trkpt>
      <trkpt lat="47.92837" lon="7.18625">
        <ele>339.96</ele>
        <time>2014-05-15T07:55:59Z</time>
      </trkpt>
      <trkpt lat="47.92839" lon="7.18621">
        <ele>339.96</ele>
        <time>2014-05-15T07:56:20Z</time>
      </trkpt>
      <trkpt lat="47.92839" lon="7.18621">
        <ele>339.48</ele>
        <time>2014-05-15T07:56:44Z</time>
      </trkpt>
      <trkpt lat="47.9284" lon="7.18623">
        <ele>339.96</ele>
        <time>2014-05-15T07:57:07Z</time>
      </trkpt>
      <trkpt lat="47.92841" lon="7.18632">
        <ele>339.96</ele>
        <time>2014-05-15T07:57:33Z</time>
      </trkpt>
      <trkpt lat="47.92847" lon="7.18634">
        <ele>339.96</ele>
        <time>2014-05-15T07:58:17Z</time>
      </trkpt>
      <trkpt lat="47.92838" lon="7.18634">
        <ele>339.96</ele>
        <time>2014-05-15T07:58:40Z</time>
      </trkpt>
      <trkpt lat="47.92833" lon="7.18627">
        <ele>339.96</ele>
        <time>2014-05-15T07:59:02Z</time>
      </trkpt>
      <trkpt lat="47.92835" lon="7.18627">
        <ele>339.96</ele>
        <time>2014-05-15T07:59:20Z</time>
      </trkpt>
      <trkpt lat="47.92838" lon="7.1863">
        <ele>339.96</ele>
        <time>2014-05-15T07:59:47Z</time>
      </trkpt>
      <trkpt lat="47.92839" lon="7.18634">
        <ele>339.96</ele>
        <time>2014-05-15T08:00:13Z</time>
      </trkpt>
      <trkpt lat="47.92837" lon="7.18638">
        <ele>339.48</ele>
        <time>2014-05-15T08:00:34Z</time>
      </trkpt>
      <trkpt lat="47.92843" lon="7.18638">
        <ele>339.48</ele>
        <time>2014-05-15T08:00:47Z</time>
      </trkpt>
      <trkpt lat="47.92845" lon="7.18637">
        <ele>339.96</ele>
        <time>2014-05-15T08:00:49Z</time>
      </trkpt>
      <trkpt lat="47.92859" lon="7.18633">
        <ele>339.96</ele>
        <time>2014-05-15T08:01:04Z</time>
      </trkpt>
      <trkpt lat="47.92873" lon="7.18655">
        <ele>339</ele>
        <time>2014-05-15T08:01:31Z</time>
      </trkpt>
      <trkpt lat="47.92872" lon="7.18649">
        <ele>339.48</ele>
        <time>2014-05-15T08:01:58Z</time>
      </trkpt>
      <trkpt lat="47.92845" lon="7.18626">
        <ele>339.48</ele>
        <time>2014-05-15T08:02:22Z</time>
      </trkpt>
      <trkpt lat="47.9285" lon="7.18637">
        <ele>339.96</ele>
        <time>2014-05-15T08:02:56Z</time>
      </trkpt>
      <trkpt lat="47.92854" lon="7.18638">
        <ele>339.96</ele>
        <time>2014-05-15T08:03:19Z</time>
      </trkpt>
      <trkpt lat="47.92849" lon="7.18635">
        <ele>339.96</ele>
        <time>2014-05-15T08:03:42Z</time>
      </trkpt>
      <trkpt lat="47.92848" lon="7.18632">
        <ele>339.48</ele>
        <time>2014-05-15T08:04:08Z</time>
      </trkpt>
      <trkpt lat="47.92846" lon="7.18629">
        <ele>339.48</ele>
        <time>2014-05-15T08:04:45Z</time>
      </trkpt>
      <trkpt lat="47.92848" lon="7.18634">
        <ele>339.48</ele>
        <time>2014-05-15T08:05:11Z</time>
      </trkpt>
      <trkpt lat="47.92847" lon="7.1864">
        <ele>339.48</ele>
        <time>2014-05-15T08:05:46Z</time>
      </trkpt>
      <trkpt lat="47.92846" lon="7.1864">
        <ele>339.96</ele>
        <time>2014-05-15T08:06:12Z</time>
      </trkpt>
      <trkpt lat="47.92847" lon="7.18646">
        <ele>339.96</ele>
        <time>2014-05-15T08:06:45Z</time>
      </trkpt>
      <trkpt lat="47.9285" lon="7.18644">
        <ele>339.48</ele>
        <time>2014-05-15T08:07:16Z</time>
      </trkpt>
      <trkpt lat="47.92844" lon="7.18642">
        <ele>339.48</ele>
        <time>2014-05-15T08:07:43Z</time>
      </trkpt>
      <trkpt lat="47.9284" lon="7.18626">
        <ele>339.96</ele>
        <time>2014-05-15T08:08:08Z</time>
      </trkpt>
      <trkpt lat="47.92839" lon="7.18627">
        <ele>339.96</ele>
        <time>2014-05-15T08:08:35Z</time>
      </trkpt>
      <trkpt lat="47.92838" lon="7.18629">
        <ele>339.96</ele>
        <time>2014-05-15T08:08:51Z</time>
      </trkpt>
      <trkpt lat="47.92828" lon="7.1862">
        <ele>339.48</ele>
        <time>2014-05-15T08:09:17Z</time>
      </trkpt>
      <trkpt lat="47.92827" lon="7.18616">
        <ele>339.48</ele>
        <time>2014-05-15T08:09:42Z</time>
      </trkpt>
      <trkpt lat="47.92832" lon="7.18619">
        <ele>339.96</ele>
        <time>2014-05-15T08:10:22Z</time>
      </trkpt>
      <trkpt lat="47.92835" lon="7.18621">
        <ele>339.48</ele>
        <time>2014-05-15T08:10:47Z</time>
      </trkpt>
      <trkpt lat="47.92834" lon="7.18616">
        <ele>339.96</ele>
        <time>2014-05-15T08:11:13Z</time>
      </trkpt>
      <trkpt lat="47.92828" lon="7.18609">
        <ele>339.96</ele>
        <time>2014-05-15T08:11:32Z</time>
      </trkpt>
      <trkpt lat="47.92807" lon="7.18591">
        <ele>339.96</ele>
        <time>2014-05-15T08:11:56Z</time>
      </trkpt>
      <trkpt lat="47.92804" lon="7.1859">
        <ele>339.48</ele>
        <time>2014-05-15T08:12:19Z</time>
      </trkpt>
      <trkpt lat="47.92812" lon="7.18596">
        <ele>339.96</ele>
        <time>2014-05-15T08:12:42Z</time>
      </trkpt>
      <trkpt lat="47.92813" lon="7.18597">
        <ele>339.48</ele>
        <time>2014-05-15T08:13:10Z</time>
      </trkpt>
      <trkpt lat="47.9283" lon="7.18616">
        <ele>340.44</ele>
        <time>2014-05-15T08:13:37Z</time>
      </trkpt>
      <trkpt lat="47.92833" lon="7.18617">
        <ele>339.48</ele>
        <time>2014-05-15T08:14:00Z</time>
      </trkpt>
      <trkpt lat="47.92832" lon="7.1862">
        <ele>340.44</ele>
        <time>2014-05-15T08:14:04Z</time>
      </trkpt>
      <trkpt lat="47.92832" lon="7.18628">
        <ele>341.89</ele>
        <time>2014-05-15T08:14:09Z</time>
      </trkpt>
      <trkpt lat="47.92832" lon="7.1863">
        <ele>339</ele>
        <time>2014-05-15T08:14:10Z</time>
      </trkpt>
      <trkpt lat="47.9284" lon="7.18631">
        <ele>340.44</ele>
        <time>2014-05-15T08:14:21Z</time>
      </trkpt>
      <trkpt lat="47.92828" lon="7.18632">
        <ele>341.41</ele>
        <time>2014-05-15T08:14:29Z</time>
      </trkpt>
      <trkpt lat="47.92823" lon="7.18635">
        <ele>340.92</ele>
        <time>2014-05-15T08:14:38Z</time>
      </trkpt>
      <trkpt lat="47.92827" lon="7.18632">
        <ele>340.44</ele>
        <time>2014-05-15T08:14:53Z</time>
      </trkpt>
      <trkpt lat="47.92833" lon="7.18636">
        <ele>340.44</ele>
        <time>2014-05-15T08:15:01Z</time>
      </trkpt>
      <trkpt lat="47.92838" lon="7.18627">
        <ele>342.85</ele>
        <time>2014-05-15T08:15:05Z</time>
      </trkpt>
      <trkpt lat="47.92841" lon="7.18623">
        <ele>340.92</ele>
        <time>2014-05-15T08:15:08Z</time>
      </trkpt>
      <trkpt lat="47.92859" lon="7.18605">
        <ele>341.41</ele>
        <time>2014-05-15T08:15:23Z</time>
      </trkpt>
      <trkpt lat="47.92868" lon="7.18587">
        <ele>342.85</ele>
        <time>2014-05-15T08:15:32Z</time>
      </trkpt>
      <trkpt lat="47.92866" lon="7.18574">
        <ele>340.44</ele>
        <time>2014-05-15T08:15:37Z</time>
      </trkpt>
      <trkpt lat="47.9286" lon="7.18553">
        <ele>341.89</ele>
        <time>2014-05-15T08:15:49Z</time>
      </trkpt>
      <trkpt lat="47.92849" lon="7.18527">
        <ele>341.89</ele>
        <time>2014-05-15T08:16:02Z</time>
      </trkpt>
      <trkpt lat="47.92847" lon="7.18498">
        <ele>342.37</ele>
        <time>2014-05-15T08:16:16Z</time>
      </trkpt>
      <trkpt lat="47.92843" lon="7.18492">
        <ele>344.29</ele>
        <time>2014-05-15T08:16:19Z</time>
      </trkpt>
      <trkpt lat="47.92839" lon="7.18483">
        <ele>343.81</ele>
        <time>2014-05-15T08:16:23Z</time>
      </trkpt>
      <trkpt lat="47.92829" lon="7.18457">
        <ele>340.92</ele>
        <time>2014-05-15T08:16:39Z</time>
      </trkpt>
      <trkpt lat="47.92827" lon="7.18448">
        <ele>341.41</ele>
        <time>2014-05-15T08:16:45Z</time>
      </trkpt>
      <trkpt lat="47.92818" lon="7.18426">
        <ele>344.29</ele>
        <time>2014-05-15T08:16:59Z</time>
      </trkpt>
      <trkpt lat="47.92813" lon="7.18406">
        <ele>342.85</ele>
        <time>2014-05-15T08:17:13Z</time>
      </trkpt>
      <trkpt lat="47.92804" lon="7.1839">
        <ele>343.81</ele>
        <time>2014-05-15T08:17:20Z</time>
      </trkpt>
      <trkpt lat="47.92802" lon="7.18384">
        <ele>343.81</ele>
        <time>2014-05-15T08:17:23Z</time>
      </trkpt>
      <trkpt lat="47.92801" lon="7.18375">
        <ele>345.73</ele>
        <time>2014-05-15T08:17:28Z</time>
      </trkpt>
      <trkpt lat="47.92802" lon="7.18371">
        <ele>347.17</ele>
        <time>2014-05-15T08:17:30Z</time>
      </trkpt>
      <trkpt lat="47.92795" lon="7.18349">
        <ele>347.65</ele>
        <time>2014-05-15T08:17:45Z</time>
      </trkpt>
      <trkpt lat="47.92795" lon="7.18348">
        <ele>346.69</ele>
        <time>2014-05-15T08:17:46Z</time>
      </trkpt>
      <trkpt lat="47.92795" lon="7.18336">
        <ele>348.13</ele>
        <time>2014-05-15T08:17:58Z</time>
      </trkpt>
      <trkpt lat="47.92797" lon="7.18328">
        <ele>349.58</ele>
        <time>2014-05-15T08:18:03Z</time>
      </trkpt>
      <trkpt lat="47.92794" lon="7.18322">
        <ele>350.54</ele>
        <time>2014-05-15T08:18:08Z</time>
      </trkpt>
      <trkpt lat="47.92777" lon="7.18324">
        <ele>353.9</ele>
        <time>2014-05-15T08:18:20Z</time>
      </trkpt>
      <trkpt lat="47.92772" lon="7.18327">
        <ele>352.94</ele>
        <time>2014-05-15T08:18:25Z</time>
      </trkpt>
      <trkpt lat="47.92768" lon="7.18328">
        <ele>353.42</ele>
        <time>2014-05-15T08:18:28Z</time>
      </trkpt>
      <trkpt lat="47.92764" lon="7.18329">
        <ele>356.31</ele>
        <time>2014-05-15T08:18:31Z</time>
      </trkpt>
      <trkpt lat="47.92763" lon="7.18328">
        <ele>352.94</ele>
        <time>2014-05-15T08:18:32Z</time>
      </trkpt>
      <trkpt lat="47.92761" lon="7.18328">
        <ele>357.27</ele>
        <time>2014-05-15T08:18:34Z</time>
      </trkpt>
      <trkpt lat="47.92755" lon="7.18328">
        <ele>359.67</ele>
        <time>2014-05-15T08:18:47Z</time>
      </trkpt>
      <trkpt lat="47.9275" lon="7.18329">
        <ele>360.15</ele>
        <time>2014-05-15T08:18:51Z</time>
      </trkpt>
      <trkpt lat="47.92746" lon="7.18329">
        <ele>358.71</ele>
        <time>2014-05-15T08:18:55Z</time>
      </trkpt>
      <trkpt lat="47.92741" lon="7.18328">
        <ele>357.75</ele>
        <time>2014-05-15T08:18:58Z</time>
      </trkpt>
      <trkpt lat="47.92734" lon="7.18328">
        <ele>361.59</ele>
        <time>2014-05-15T08:19:05Z</time>
      </trkpt>
      <trkpt lat="47.92733" lon="7.18327">
        <ele>361.59</ele>
        <time>2014-05-15T08:19:06Z</time>
      </trkpt>
      <trkpt lat="47.92724" lon="7.18311">
        <ele>358.23</ele>
        <time>2014-05-15T08:19:17Z</time>
      </trkpt>
      <trkpt lat="47.92717" lon="7.18294">
        <ele>361.59</ele>
        <time>2014-05-15T08:19:30Z</time>
      </trkpt>
      <trkpt lat="47.92717" lon="7.18293">
        <ele>358.23</ele>
        <time>2014-05-15T08:19:31Z</time>
      </trkpt>
      <trkpt lat="47.92713" lon="7.18282">
        <ele>362.07</ele>
        <time>2014-05-15T08:19:39Z</time>
      </trkpt>
      <trkpt lat="47.92714" lon="7.18276">
        <ele>364.96</ele>
        <time>2014-05-15T08:19:50Z</time>
      </trkpt>
      <trkpt lat="47.92716" lon="7.18266">
        <ele>366.4</ele>
        <time>2014-05-15T08:19:59Z</time>
      </trkpt>
      <trkpt lat="47.92716" lon="7.18255">
        <ele>365.44</ele>
        <time>2014-05-15T08:20:14Z</time>
      </trkpt>
      <trkpt lat="47.92716" lon="7.18255">
        <ele>364.96</ele>
        <time>2014-05-15T08:20:17Z</time>
      </trkpt>
      <trkpt lat="47.92722" lon="7.18251">
        <ele>364.48</ele>
        <time>2014-05-15T08:20:23Z</time>
      </trkpt>
      <trkpt lat="47.92725" lon="7.1825">
        <ele>366.4</ele>
        <time>2014-05-15T08:20:26Z</time>
      </trkpt>
      <trkpt lat="47.92728" lon="7.18248">
        <ele>364</ele>
        <time>2014-05-15T08:20:29Z</time>
      </trkpt>
      <trkpt lat="47.9273" lon="7.18246">
        <ele>365.92</ele>
        <time>2014-05-15T08:20:31Z</time>
      </trkpt>
      <trkpt lat="47.92745" lon="7.1824">
        <ele>364</ele>
        <time>2014-05-15T08:20:43Z</time>
      </trkpt>
      <trkpt lat="47.9275" lon="7.18237">
        <ele>366.88</ele>
        <time>2014-05-15T08:20:47Z</time>
      </trkpt>
      <trkpt lat="47.92752" lon="7.18233">
        <ele>364</ele>
        <time>2014-05-15T08:20:51Z</time>
      </trkpt>
      <trkpt lat="47.92755" lon="7.18236">
        <ele>364.96</ele>
        <time>2014-05-15T08:20:54Z</time>
      </trkpt>
      <trkpt lat="47.9276" lon="7.18244">
        <ele>364</ele>
        <time>2014-05-15T08:20:58Z</time>
      </trkpt>
      <trkpt lat="47.92762" lon="7.1825">
        <ele>365.92</ele>
        <time>2014-05-15T08:21:01Z</time>
      </trkpt>
      <trkpt lat="47.92763" lon="7.18252">
        <ele>365.92</ele>
        <time>2014-05-15T08:21:02Z</time>
      </trkpt>
      <trkpt lat="47.92764" lon="7.18257">
        <ele>363.04</ele>
        <time>2014-05-15T08:21:05Z</time>
      </trkpt>
      <trkpt lat="47.92765" lon="7.18262">
        <ele>365.92</ele>
        <time>2014-05-15T08:21:08Z</time>
      </trkpt>
      <trkpt lat="47.92766" lon="7.18267">
        <ele>364</ele>
        <time>2014-05-15T08:21:11Z</time>
      </trkpt>
      <trkpt lat="47.92754" lon="7.18271">
        <ele>364.96</ele>
        <time>2014-05-15T08:21:15Z</time>
      </trkpt>
      <trkpt lat="47.92734" lon="7.18273">
        <ele>364.48</ele>
        <time>2014-05-15T08:21:31Z</time>
      </trkpt>
      <trkpt lat="47.92717" lon="7.18279">
        <ele>364</ele>
        <time>2014-05-15T08:21:45Z</time>
      </trkpt>
      <trkpt lat="47.92716" lon="7.18281">
        <ele>364</ele>
        <time>2014-05-15T08:21:54Z</time>
      </trkpt>
      <trkpt lat="47.92714" lon="7.1826">
        <ele>363.04</ele>
        <time>2014-05-15T08:22:09Z</time>
      </trkpt>
      <trkpt lat="47.92715" lon="7.18259">
        <ele>365.44</ele>
        <time>2014-05-15T08:22:12Z</time>
      </trkpt>
      <trkpt lat="47.92715" lon="7.18257">
        <ele>363.52</ele>
        <time>2014-05-15T08:22:14Z</time>
      </trkpt>
      <trkpt lat="47.92721" lon="7.18251">
        <ele>363.04</ele>
        <time>2014-05-15T08:22:24Z</time>
      </trkpt>
      <trkpt lat="47.9273" lon="7.18245">
        <ele>365.44</ele>
        <time>2014-05-15T08:22:32Z</time>
      </trkpt>
      <trkpt lat="47.92733" lon="7.18243">
        <ele>360.63</ele>
        <time>2014-05-15T08:22:43Z</time>
      </trkpt>
      <trkpt lat="47.92734" lon="7.18238">
        <ele>364.96</ele>
        <time>2014-05-15T08:22:44Z</time>
      </trkpt>
      <trkpt lat="47.92735" lon="7.18241">
        <ele>365.44</ele>
        <time>2014-05-15T08:23:09Z</time>
      </trkpt>
      <trkpt lat="47.92735" lon="7.18243">
        <ele>364.96</ele>
        <time>2014-05-15T08:23:28Z</time>
      </trkpt>
      <trkpt lat="47.92728" lon="7.1825">
        <ele>364.96</ele>
        <time>2014-05-15T08:23:47Z</time>
      </trkpt>
      <trkpt lat="47.92722" lon="7.1825">
        <ele>365.92</ele>
        <time>2014-05-15T08:23:51Z</time>
      </trkpt>
      <trkpt lat="47.92714" lon="7.18272">
        <ele>364.96</ele>
        <time>2014-05-15T08:24:12Z</time>
      </trkpt>
      <trkpt lat="47.92727" lon="7.18272">
        <ele>365.44</ele>
        <time>2014-05-15T08:24:30Z</time>
      </trkpt>
      <trkpt lat="47.92733" lon="7.18255">
        <ele>365.44</ele>
        <time>2014-05-15T08:24:47Z</time>
      </trkpt>
      <trkpt lat="47.92733" lon="7.18242">
        <ele>365.92</ele>
        <time>2014-05-15T08:25:05Z</time>
      </trkpt>
      <trkpt lat="47.92733" lon="7.18234">
        <ele>365.92</ele>
        <time>2014-05-15T08:25:09Z</time>
      </trkpt>
      <trkpt lat="47.9274" lon="7.18225">
        <ele>366.4</ele>
        <time>2014-05-15T08:25:16Z</time>
      </trkpt>
      <trkpt lat="47.92754" lon="7.18209">
        <ele>365.44</ele>
        <time>2014-05-15T08:25:29Z</time>
      </trkpt>
      <trkpt lat="47.92765" lon="7.18192">
        <ele>364.96</ele>
        <time>2014-05-15T08:25:42Z</time>
      </trkpt>
      <trkpt lat="47.9277" lon="7.18192">
        <ele>364.96</ele>
        <time>2014-05-15T08:25:53Z</time>
      </trkpt>
      <trkpt lat="47.92776" lon="7.18193">
        <ele>364.48</ele>
        <time>2014-05-15T08:26:00Z</time>
      </trkpt>
      <trkpt lat="47.92779" lon="7.18181">
        <ele>365.44</ele>
        <time>2014-05-15T08:26:06Z</time>
      </trkpt>
      <trkpt lat="47.92782" lon="7.1816">
        <ele>365.92</ele>
        <time>2014-05-15T08:26:20Z</time>
      </trkpt>
      <trkpt lat="47.92785" lon="7.18159">
        <ele>365.92</ele>
        <time>2014-05-15T08:26:32Z</time>
      </trkpt>
      <trkpt lat="47.92779" lon="7.18154">
        <ele>365.92</ele>
        <time>2014-05-15T08:26:37Z</time>
      </trkpt>
      <trkpt lat="47.92771" lon="7.18163">
        <ele>365.44</ele>
        <time>2014-05-15T08:26:51Z</time>
      </trkpt>
      <trkpt lat="47.92771" lon="7.18163">
        <ele>362.55</ele>
        <time>2014-05-15T08:27:10Z</time>
      </trkpt>
      <trkpt lat="47.92771" lon="7.18162">
        <ele>369.28</ele>
        <time>2014-05-15T08:27:11Z</time>
      </trkpt>
      <trkpt lat="47.92771" lon="7.18162">
        <ele>365.92</ele>
        <time>2014-05-15T08:27:13Z</time>
      </trkpt>
      <trkpt lat="47.92771" lon="7.18162">
        <ele>365.44</ele>
        <time>2014-05-15T08:27:46Z</time>
      </trkpt>
      <trkpt lat="47.9277" lon="7.18161">
        <ele>365.92</ele>
        <time>2014-05-15T08:28:12Z</time>
      </trkpt>
      <trkpt lat="47.9277" lon="7.18162">
        <ele>364.96</ele>
        <time>2014-05-15T08:28:52Z</time>
      </trkpt>
      <trkpt lat="47.92761" lon="7.18167">
        <ele>364.96</ele>
        <time>2014-05-15T08:29:00Z</time>
      </trkpt>
      <trkpt lat="47.92756" lon="7.18172">
        <ele>364.48</ele>
        <time>2014-05-15T08:29:05Z</time>
      </trkpt>
      <trkpt lat="47.92752" lon="7.18173">
        <ele>365.44</ele>
        <time>2014-05-15T08:29:09Z</time>
      </trkpt>
      <trkpt lat="47.92747" lon="7.18166">
        <ele>363.52</ele>
        <time>2014-05-15T08:29:17Z</time>
      </trkpt>
      <trkpt lat="47.92728" lon="7.18163">
        <ele>364.48</ele>
        <time>2014-05-15T08:29:30Z</time>
      </trkpt>
      <trkpt lat="47.92718" lon="7.1817">
        <ele>361.59</ele>
        <time>2014-05-15T08:29:39Z</time>
      </trkpt>
      <trkpt lat="47.92717" lon="7.18171">
        <ele>361.11</ele>
        <time>2014-05-15T08:29:40Z</time>
      </trkpt>
      <trkpt lat="47.92703" lon="7.1819">
        <ele>361.11</ele>
        <time>2014-05-15T08:29:54Z</time>
      </trkpt>
      <trkpt lat="47.92702" lon="7.18191">
        <ele>361.11</ele>
        <time>2014-05-15T08:30:04Z</time>
      </trkpt>
      <trkpt lat="47.92696" lon="7.18197">
        <ele>361.59</ele>
        <time>2014-05-15T08:30:10Z</time>
      </trkpt>
      <trkpt lat="47.92684" lon="7.18209">
        <ele>359.19</ele>
        <time>2014-05-15T08:30:23Z</time>
      </trkpt>
      <trkpt lat="47.92681" lon="7.18212">
        <ele>359.19</ele>
        <time>2014-05-15T08:30:26Z</time>
      </trkpt>
      <trkpt lat="47.92673" lon="7.18221">
        <ele>355.83</ele>
        <time>2014-05-15T08:30:35Z</time>
      </trkpt>
      <trkpt lat="47.92671" lon="7.18227">
        <ele>358.23</ele>
        <time>2014-05-15T08:30:52Z</time>
      </trkpt>
      <trkpt lat="47.92665" lon="7.18234">
        <ele>356.31</ele>
        <time>2014-05-15T08:30:59Z</time>
      </trkpt>
      <trkpt lat="47.92657" lon="7.18249">
        <ele>351.98</ele>
        <time>2014-05-15T08:31:09Z</time>
      </trkpt>
      <trkpt lat="47.9265" lon="7.18264">
        <ele>351.02</ele>
        <time>2014-05-15T08:31:20Z</time>
      </trkpt>
      <trkpt lat="47.92649" lon="7.18265">
        <ele>346.69</ele>
        <time>2014-05-15T08:31:28Z</time>
      </trkpt>
      <trkpt lat="47.92648" lon="7.18264">
        <ele>349.1</ele>
        <time>2014-05-15T08:31:29Z</time>
      </trkpt>
      <trkpt lat="47.92645" lon="7.18263">
        <ele>347.65</ele>
        <time>2014-05-15T08:31:31Z</time>
      </trkpt>
      <trkpt lat="47.92644" lon="7.18269">
        <ele>348.13</ele>
        <time>2014-05-15T08:31:35Z</time>
      </trkpt>
      <trkpt lat="47.92652" lon="7.18283">
        <ele>347.65</ele>
        <time>2014-05-15T08:31:42Z</time>
      </trkpt>
      <trkpt lat="47.92665" lon="7.18313">
        <ele>345.73</ele>
        <time>2014-05-15T08:32:00Z</time>
      </trkpt>
      <trkpt lat="47.92666" lon="7.18337">
        <ele>347.17</ele>
        <time>2014-05-15T08:32:11Z</time>
      </trkpt>
      <trkpt lat="47.92668" lon="7.18343">
        <ele>346.21</ele>
        <time>2014-05-15T08:32:16Z</time>
      </trkpt>
      <trkpt lat="47.92672" lon="7.18352">
        <ele>347.17</ele>
        <time>2014-05-15T08:32:21Z</time>
      </trkpt>
      <trkpt lat="47.92683" lon="7.18385">
        <ele>345.25</ele>
        <time>2014-05-15T08:32:37Z</time>
      </trkpt>
      <trkpt lat="47.92691" lon="7.18407">
        <ele>344.29</ele>
        <time>2014-05-15T08:32:50Z</time>
      </trkpt>
      <trkpt lat="47.92696" lon="7.18425">
        <ele>341.41</ele>
        <time>2014-05-15T08:33:01Z</time>
      </trkpt>
      <trkpt lat="47.927" lon="7.18442">
        <ele>341.89</ele>
        <time>2014-05-15T08:33:11Z</time>
      </trkpt>
      <trkpt lat="47.92699" lon="7.1845">
        <ele>340.92</ele>
        <time>2014-05-15T08:33:15Z</time>
      </trkpt>
      <trkpt lat="47.92698" lon="7.18461">
        <ele>340.92</ele>
        <time>2014-05-15T08:33:20Z</time>
      </trkpt>
      <trkpt lat="47.927" lon="7.18472">
        <ele>344.29</ele>
        <time>2014-05-15T08:33:26Z</time>
      </trkpt>
      <trkpt lat="47.92703" lon="7.1849">
        <ele>341.41</ele>
        <time>2014-05-15T08:33:35Z</time>
      </trkpt>
      <trkpt lat="47.92709" lon="7.18519">
        <ele>341.89</ele>
        <time>2014-05-15T08:33:49Z</time>
      </trkpt>
      <trkpt lat="47.92708" lon="7.18534">
        <ele>341.89</ele>
        <time>2014-05-15T08:33:57Z</time>
      </trkpt>
      <trkpt lat="47.92706" lon="7.18538">
        <ele>342.85</ele>
        <time>2014-05-15T08:33:59Z</time>
      </trkpt>
      <trkpt lat="47.92701" lon="7.18545">
        <ele>339.48</ele>
        <time>2014-05-15T08:34:04Z</time>
      </trkpt>
      <trkpt lat="47.92699" lon="7.18547">
        <ele>339.96</ele>
        <time>2014-05-15T08:34:05Z</time>
      </trkpt>
      <trkpt lat="47.92698" lon="7.18548">
        <ele>339</ele>
        <time>2014-05-15T08:34:06Z</time>
      </trkpt>
      <trkpt lat="47.92689" lon="7.18559">
        <ele>342.37</ele>
        <time>2014-05-15T08:34:16Z</time>
      </trkpt>
      <trkpt lat="47.92679" lon="7.18568">
        <ele>339.96</ele>
        <time>2014-05-15T08:34:23Z</time>
      </trkpt>
      <trkpt lat="47.92664" lon="7.18586">
        <ele>341.89</ele>
        <time>2014-05-15T08:34:34Z</time>
      </trkpt>
      <trkpt lat="47.92658" lon="7.18594">
        <ele>339</ele>
        <time>2014-05-15T08:34:40Z</time>
      </trkpt>
      <trkpt lat="47.92652" lon="7.18599">
        <ele>339.96</ele>
        <time>2014-05-15T08:34:45Z</time>
      </trkpt>
      <trkpt lat="47.92647" lon="7.18604">
        <ele>341.41</ele>
        <time>2014-05-15T08:34:49Z</time>
      </trkpt>
      <trkpt lat="47.92644" lon="7.18607">
        <ele>340.92</ele>
        <time>2014-05-15T08:34:51Z</time>
      </trkpt>
      <trkpt lat="47.9264" lon="7.1862">
        <ele>340.92</ele>
        <time>2014-05-15T08:34:58Z</time>
      </trkpt>
      <trkpt lat="47.92633" lon="7.1863">
        <ele>337.56</ele>
        <time>2014-05-15T08:35:06Z</time>
      </trkpt>
      <trkpt lat="47.9263" lon="7.18632">
        <ele>338.52</ele>
        <time>2014-05-15T08:35:08Z</time>
      </trkpt>
      <trkpt lat="47.92625" lon="7.18634">
        <ele>340.92</ele>
        <time>2014-05-15T08:35:11Z</time>
      </trkpt>
      <trkpt lat="47.92624" lon="7.18635">
        <ele>340.92</ele>
        <time>2014-05-15T08:35:12Z</time>
      </trkpt>
      <trkpt lat="47.92615" lon="7.18642">
        <ele>337.08</ele>
        <time>2014-05-15T08:35:18Z</time>
      </trkpt>
      <trkpt lat="47.9261" lon="7.18647">
        <ele>336.6</ele>
        <time>2014-05-15T08:35:22Z</time>
      </trkpt>
      <trkpt lat="47.92607" lon="7.18652">
        <ele>340.44</ele>
        <time>2014-05-15T08:35:25Z</time>
      </trkpt>
      <trkpt lat="47.92606" lon="7.18653">
        <ele>339.96</ele>
        <time>2014-05-15T08:35:26Z</time>
      </trkpt>
      <trkpt lat="47.92602" lon="7.18656">
        <ele>338.04</ele>
        <time>2014-05-15T08:35:30Z</time>
      </trkpt>
      <trkpt lat="47.926" lon="7.18659">
        <ele>336.6</ele>
        <time>2014-05-15T08:35:32Z</time>
      </trkpt>
      <trkpt lat="47.92589" lon="7.18668">
        <ele>340.44</ele>
        <time>2014-05-15T08:35:39Z</time>
      </trkpt>
      <trkpt lat="47.92585" lon="7.18672">
        <ele>338.52</ele>
        <time>2014-05-15T08:35:42Z</time>
      </trkpt>
      <trkpt lat="47.92574" lon="7.1869">
        <ele>339</ele>
        <time>2014-05-15T08:35:53Z</time>
      </trkpt>
      <trkpt lat="47.92571" lon="7.1869">
        <ele>340.92</ele>
        <time>2014-05-15T08:35:55Z</time>
      </trkpt>
      <trkpt lat="47.92568" lon="7.18692">
        <ele>339</ele>
        <time>2014-05-15T08:35:57Z</time>
      </trkpt>
      <trkpt lat="47.92563" lon="7.18694">
        <ele>337.08</ele>
        <time>2014-05-15T08:36:00Z</time>
      </trkpt>
      <trkpt lat="47.92551" lon="7.18711">
        <ele>338.52</ele>
        <time>2014-05-15T08:36:12Z</time>
      </trkpt>
      <trkpt lat="47.92548" lon="7.18717">
        <ele>336.6</ele>
        <time>2014-05-15T08:36:15Z</time>
      </trkpt>
      <trkpt lat="47.92541" lon="7.18726">
        <ele>338.04</ele>
        <time>2014-05-15T08:36:20Z</time>
      </trkpt>
      <trkpt lat="47.92539" lon="7.18727">
        <ele>339.48</ele>
        <time>2014-05-15T08:36:22Z</time>
      </trkpt>
      <trkpt lat="47.92532" lon="7.18733">
        <ele>337.08</ele>
        <time>2014-05-15T08:36:29Z</time>
      </trkpt>
      <trkpt lat="47.9253" lon="7.18735">
        <ele>336.6</ele>
        <time>2014-05-15T08:36:31Z</time>
      </trkpt>
      <trkpt lat="47.92524" lon="7.18743">
        <ele>336.6</ele>
        <time>2014-05-15T08:36:37Z</time>
      </trkpt>
      <trkpt lat="47.92521" lon="7.18746">
        <ele>338.52</ele>
        <time>2014-05-15T08:36:40Z</time>
      </trkpt>
      <trkpt lat="47.92506" lon="7.18755">
        <ele>339</ele>
        <time>2014-05-15T08:36:54Z</time>
      </trkpt>
      <trkpt lat="47.92503" lon="7.18755">
        <ele>337.08</ele>
        <time>2014-05-15T08:36:57Z</time>
      </trkpt>
      <trkpt lat="47.92489" lon="7.18752">
        <ele>338.04</ele>
        <time>2014-05-15T08:37:13Z</time>
      </trkpt>
      <trkpt lat="47.92481" lon="7.18748">
        <ele>337.08</ele>
        <time>2014-05-15T08:37:31Z</time>
      </trkpt>
      <trkpt lat="47.92479" lon="7.18748">
        <ele>338.04</ele>
        <time>2014-05-15T08:37:33Z</time>
      </trkpt>
      <trkpt lat="47.92475" lon="7.18746">
        <ele>338.52</ele>
        <time>2014-05-15T08:37:38Z</time>
      </trkpt>
      <trkpt lat="47.92474" lon="7.18746">
        <ele>337.08</ele>
        <time>2014-05-15T08:37:41Z</time>
      </trkpt>
      <trkpt lat="47.92474" lon="7.18744">
        <ele>338.52</ele>
        <time>2014-05-15T08:37:44Z</time>
      </trkpt>
      <trkpt lat="47.9247" lon="7.18738">
        <ele>338.04</ele>
        <time>2014-05-15T08:37:55Z</time>
      </trkpt>
      <trkpt lat="47.92468" lon="7.18734">
        <ele>339.96</ele>
        <time>2014-05-15T08:37:58Z</time>
      </trkpt>
      <trkpt lat="47.9246" lon="7.18713">
        <ele>340.92</ele>
        <time>2014-05-15T08:38:13Z</time>
      </trkpt>
      <trkpt lat="47.92436" lon="7.18707">
        <ele>343.33</ele>
        <time>2014-05-15T08:38:30Z</time>
      </trkpt>
      <trkpt lat="47.92427" lon="7.1871">
        <ele>341.89</ele>
        <time>2014-05-15T08:38:36Z</time>
      </trkpt>
      <trkpt lat="47.9242" lon="7.18717">
        <ele>342.37</ele>
        <time>2014-05-15T08:38:50Z</time>
      </trkpt>
      <trkpt lat="47.92415" lon="7.1873">
        <ele>342.85</ele>
        <time>2014-05-15T08:39:07Z</time>
      </trkpt>
      <trkpt lat="47.92407" lon="7.18737">
        <ele>345.25</ele>
        <time>2014-05-15T08:39:16Z</time>
      </trkpt>
      <trkpt lat="47.92395" lon="7.18747">
        <ele>346.69</ele>
        <time>2014-05-15T08:39:28Z</time>
      </trkpt>
      <trkpt lat="47.92383" lon="7.18759">
        <ele>348.13</ele>
        <time>2014-05-15T08:39:44Z</time>
      </trkpt>
      <trkpt lat="47.92371" lon="7.18768">
        <ele>348.13</ele>
        <time>2014-05-15T08:39:55Z</time>
      </trkpt>
      <trkpt lat="47.92367" lon="7.1878">
        <ele>355.34</ele>
        <time>2014-05-15T08:40:02Z</time>
      </trkpt>
      <trkpt lat="47.92367" lon="7.18782">
        <ele>349.58</ele>
        <time>2014-05-15T08:40:03Z</time>
      </trkpt>
      <trkpt lat="47.92366" lon="7.18784">
        <ele>348.62</ele>
        <time>2014-05-15T08:40:05Z</time>
      </trkpt>
      <trkpt lat="47.92366" lon="7.18788">
        <ele>348.13</ele>
        <time>2014-05-15T08:40:31Z</time>
      </trkpt>
      <trkpt lat="47.92362" lon="7.18795">
        <ele>349.1</ele>
        <time>2014-05-15T08:41:14Z</time>
      </trkpt>
      <trkpt lat="47.92358" lon="7.18801">
        <ele>346.69</ele>
        <time>2014-05-15T08:41:19Z</time>
      </trkpt>
      <trkpt lat="47.92356" lon="7.18803">
        <ele>351.02</ele>
        <time>2014-05-15T08:41:21Z</time>
      </trkpt>
      <trkpt lat="47.92354" lon="7.18804">
        <ele>350.54</ele>
        <time>2014-05-15T08:41:22Z</time>
      </trkpt>
      <trkpt lat="47.92347" lon="7.18808">
        <ele>351.02</ele>
        <time>2014-05-15T08:41:28Z</time>
      </trkpt>
      <trkpt lat="47.92338" lon="7.18817">
        <ele>352.94</ele>
        <time>2014-05-15T08:41:37Z</time>
      </trkpt>
      <trkpt lat="47.92317" lon="7.18843">
        <ele>353.9</ele>
        <time>2014-05-15T08:41:57Z</time>
      </trkpt>
      <trkpt lat="47.92316" lon="7.18846">
        <ele>356.31</ele>
        <time>2014-05-15T08:41:59Z</time>
      </trkpt>
      <trkpt lat="47.92314" lon="7.18849">
        <ele>354.86</ele>
        <time>2014-05-15T08:42:01Z</time>
      </trkpt>
      <trkpt lat="47.92312" lon="7.18854">
        <ele>354.86</ele>
        <time>2014-05-15T08:42:05Z</time>
      </trkpt>
      <trkpt lat="47.92312" lon="7.18856">
        <ele>356.79</ele>
        <time>2014-05-15T08:42:07Z</time>
      </trkpt>
      <trkpt lat="47.92299" lon="7.18877">
        <ele>358.23</ele>
        <time>2014-05-15T08:42:25Z</time>
      </trkpt>
      <trkpt lat="47.92297" lon="7.18879">
        <ele>358.23</ele>
        <time>2014-05-15T08:42:26Z</time>
      </trkpt>
      <trkpt lat="47.92294" lon="7.18882">
        <ele>356.79</ele>
        <time>2014-05-15T08:42:28Z</time>
      </trkpt>
      <trkpt lat="47.92287" lon="7.18896">
        <ele>356.79</ele>
        <time>2014-05-15T08:42:36Z</time>
      </trkpt>
      <trkpt lat="47.92284" lon="7.189">
        <ele>359.19</ele>
        <time>2014-05-15T08:42:39Z</time>
      </trkpt>
      <trkpt lat="47.92282" lon="7.18905">
        <ele>359.67</ele>
        <time>2014-05-15T08:42:43Z</time>
      </trkpt>
      <trkpt lat="47.9228" lon="7.18907">
        <ele>357.75</ele>
        <time>2014-05-15T08:42:45Z</time>
      </trkpt>
      <trkpt lat="47.92268" lon="7.18915">
        <ele>360.15</ele>
        <time>2014-05-15T08:42:55Z</time>
      </trkpt>
      <trkpt lat="47.92263" lon="7.18922">
        <ele>360.15</ele>
        <time>2014-05-15T08:43:02Z</time>
      </trkpt>
      <trkpt lat="47.92254" lon="7.18931">
        <ele>363.04</ele>
        <time>2014-05-15T08:43:11Z</time>
      </trkpt>
      <trkpt lat="47.92253" lon="7.18934">
        <ele>358.23</ele>
        <time>2014-05-15T08:43:13Z</time>
      </trkpt>
      <trkpt lat="47.92252" lon="7.18935">
        <ele>359.19</ele>
        <time>2014-05-15T08:43:14Z</time>
      </trkpt>
      <trkpt lat="47.9225" lon="7.1894">
        <ele>363.52</ele>
        <time>2014-05-15T08:43:17Z</time>
      </trkpt>
      <trkpt lat="47.92247" lon="7.18943">
        <ele>359.67</ele>
        <time>2014-05-15T08:43:20Z</time>
      </trkpt>
      <trkpt lat="47.92246" lon="7.18943">
        <ele>360.63</ele>
        <time>2014-05-15T08:43:21Z</time>
      </trkpt>
      <trkpt lat="47.92244" lon="7.18946">
        <ele>364</ele>
        <time>2014-05-15T08:43:23Z</time>
      </trkpt>
      <trkpt lat="47.92242" lon="7.18948">
        <ele>360.63</ele>
        <time>2014-05-15T08:43:25Z</time>
      </trkpt>
      <trkpt lat="47.92241" lon="7.18953">
        <ele>364.48</ele>
        <time>2014-05-15T08:43:28Z</time>
      </trkpt>
      <trkpt lat="47.9224" lon="7.18956">
        <ele>361.11</ele>
        <time>2014-05-15T08:43:30Z</time>
      </trkpt>
      <trkpt lat="47.92238" lon="7.18959">
        <ele>364.48</ele>
        <time>2014-05-15T08:43:32Z</time>
      </trkpt>
      <trkpt lat="47.92238" lon="7.1896">
        <ele>364.48</ele>
        <time>2014-05-15T08:43:33Z</time>
      </trkpt>
      <trkpt lat="47.92236" lon="7.18963">
        <ele>362.55</ele>
        <time>2014-05-15T08:43:35Z</time>
      </trkpt>
      <trkpt lat="47.92235" lon="7.18966">
        <ele>365.92</ele>
        <time>2014-05-15T08:43:37Z</time>
      </trkpt>
      <trkpt lat="47.92235" lon="7.18967">
        <ele>362.55</ele>
        <time>2014-05-15T08:43:38Z</time>
      </trkpt>
      <trkpt lat="47.92234" lon="7.18968">
        <ele>363.52</ele>
        <time>2014-05-15T08:43:39Z</time>
      </trkpt>
      <trkpt lat="47.92229" lon="7.18973">
        <ele>363.04</ele>
        <time>2014-05-15T08:43:43Z</time>
      </trkpt>
      <trkpt lat="47.92225" lon="7.18983">
        <ele>365.44</ele>
        <time>2014-05-15T08:43:49Z</time>
      </trkpt>
      <trkpt lat="47.92218" lon="7.18992">
        <ele>366.4</ele>
        <time>2014-05-15T08:43:57Z</time>
      </trkpt>
      <trkpt lat="47.92217" lon="7.18994">
        <ele>364.96</ele>
        <time>2014-05-15T08:43:59Z</time>
      </trkpt>
      <trkpt lat="47.92217" lon="7.18995">
        <ele>368.8</ele>
        <time>2014-05-15T08:44:01Z</time>
      </trkpt>
      <trkpt lat="47.92216" lon="7.18996">
        <ele>365.44</ele>
        <time>2014-05-15T08:44:02Z</time>
      </trkpt>
      <trkpt lat="47.92215" lon="7.18996">
        <ele>365.92</ele>
        <time>2014-05-15T08:44:03Z</time>
      </trkpt>
      <trkpt lat="47.92207" lon="7.19">
        <ele>369.28</ele>
        <time>2014-05-15T08:44:13Z</time>
      </trkpt>
      <trkpt lat="47.92206" lon="7.19">
        <ele>368.8</ele>
        <time>2014-05-15T08:44:14Z</time>
      </trkpt>
      <trkpt lat="47.922" lon="7.18998">
        <ele>368.8</ele>
        <time>2014-05-15T08:44:19Z</time>
      </trkpt>
      <trkpt lat="47.92192" lon="7.19003">
        <ele>367.84</ele>
        <time>2014-05-15T08:44:26Z</time>
      </trkpt>
      <trkpt lat="47.9218" lon="7.19">
        <ele>369.28</ele>
        <time>2014-05-15T08:44:37Z</time>
      </trkpt>
      <trkpt lat="47.92164" lon="7.18994">
        <ele>371.21</ele>
        <time>2014-05-15T08:44:51Z</time>
      </trkpt>
      <trkpt lat="47.92158" lon="7.18994">
        <ele>372.17</ele>
        <time>2014-05-15T08:45:05Z</time>
      </trkpt>
      <trkpt lat="47.92158" lon="7.18994">
        <ele>371.69</ele>
        <time>2014-05-15T08:45:28Z</time>
      </trkpt>
      <trkpt lat="47.92158" lon="7.18994">
        <ele>370.73</ele>
        <time>2014-05-15T08:45:43Z</time>
      </trkpt>
      <trkpt lat="47.92151" lon="7.18989">
        <ele>371.69</ele>
        <time>2014-05-15T08:46:01Z</time>
      </trkpt>
      <trkpt lat="47.92149" lon="7.18989">
        <ele>372.65</ele>
        <time>2014-05-15T08:46:03Z</time>
      </trkpt>
      <trkpt lat="47.92145" lon="7.18991">
        <ele>371.69</ele>
        <time>2014-05-15T08:46:06Z</time>
      </trkpt>
      <trkpt lat="47.92137" lon="7.18994">
        <ele>370.24</ele>
        <time>2014-05-15T08:46:10Z</time>
      </trkpt>
      <trkpt lat="47.92132" lon="7.18998">
        <ele>374.09</ele>
        <time>2014-05-15T08:46:13Z</time>
      </trkpt>
      <trkpt lat="47.92131" lon="7.18999">
        <ele>374.09</ele>
        <time>2014-05-15T08:46:14Z</time>
      </trkpt>
      <trkpt lat="47.92125" lon="7.19004">
        <ele>370.24</ele>
        <time>2014-05-15T08:46:17Z</time>
      </trkpt>
      <trkpt lat="47.92122" lon="7.19006">
        <ele>374.57</ele>
        <time>2014-05-15T08:46:19Z</time>
      </trkpt>
      <trkpt lat="47.92117" lon="7.19009">
        <ele>373.61</ele>
        <time>2014-05-15T08:46:23Z</time>
      </trkpt>
      <trkpt lat="47.92112" lon="7.19014">
        <ele>372.17</ele>
        <time>2014-05-15T08:46:29Z</time>
      </trkpt>
      <trkpt lat="47.92108" lon="7.19018">
        <ele>376.49</ele>
        <time>2014-05-15T08:46:32Z</time>
      </trkpt>
      <trkpt lat="47.92105" lon="7.1902">
        <ele>377.45</ele>
        <time>2014-05-15T08:46:34Z</time>
      </trkpt>
      <trkpt lat="47.92102" lon="7.19024">
        <ele>374.09</ele>
        <time>2014-05-15T08:46:37Z</time>
      </trkpt>
      <trkpt lat="47.92097" lon="7.1903">
        <ele>375.53</ele>
        <time>2014-05-15T08:46:42Z</time>
      </trkpt>
      <trkpt lat="47.9209" lon="7.19049">
        <ele>376.49</ele>
        <time>2014-05-15T08:46:53Z</time>
      </trkpt>
      <trkpt lat="47.92089" lon="7.19051">
        <ele>372.65</ele>
        <time>2014-05-15T08:46:55Z</time>
      </trkpt>
      <trkpt lat="47.92088" lon="7.19052">
        <ele>373.13</ele>
        <time>2014-05-15T08:46:56Z</time>
      </trkpt>
      <trkpt lat="47.92086" lon="7.19058">
        <ele>376.49</ele>
        <time>2014-05-15T08:46:59Z</time>
      </trkpt>
      <trkpt lat="47.92078" lon="7.19072">
        <ele>374.09</ele>
        <time>2014-05-15T08:47:09Z</time>
      </trkpt>
      <trkpt lat="47.92075" lon="7.19083">
        <ele>375.05</ele>
        <time>2014-05-15T08:47:14Z</time>
      </trkpt>
      <trkpt lat="47.92071" lon="7.19089">
        <ele>375.53</ele>
        <time>2014-05-15T08:47:20Z</time>
      </trkpt>
      <trkpt lat="47.9207" lon="7.191">
        <ele>375.05</ele>
        <time>2014-05-15T08:47:25Z</time>
      </trkpt>
      <trkpt lat="47.92068" lon="7.19106">
        <ele>379.38</ele>
        <time>2014-05-15T08:47:28Z</time>
      </trkpt>
      <trkpt lat="47.92067" lon="7.19108">
        <ele>378.42</ele>
        <time>2014-05-15T08:47:29Z</time>
      </trkpt>
      <trkpt lat="47.92067" lon="7.19109">
        <ele>375.05</ele>
        <time>2014-05-15T08:47:30Z</time>
      </trkpt>
      <trkpt lat="47.92066" lon="7.1911">
        <ele>376.97</ele>
        <time>2014-05-15T08:47:31Z</time>
      </trkpt>
      <trkpt lat="47.92065" lon="7.19112">
        <ele>378.9</ele>
        <time>2014-05-15T08:47:33Z</time>
      </trkpt>
      <trkpt lat="47.92061" lon="7.19141">
        <ele>382.26</ele>
        <time>2014-05-15T08:47:52Z</time>
      </trkpt>
      <trkpt lat="47.92053" lon="7.19151">
        <ele>381.3</ele>
        <time>2014-05-15T08:47:59Z</time>
      </trkpt>
      <trkpt lat="47.92048" lon="7.19157">
        <ele>378.9</ele>
        <time>2014-05-15T08:48:05Z</time>
      </trkpt>
      <trkpt lat="47.92046" lon="7.1916">
        <ele>380.34</ele>
        <time>2014-05-15T08:48:07Z</time>
      </trkpt>
      <trkpt lat="47.92035" lon="7.19172">
        <ele>380.34</ele>
        <time>2014-05-15T08:48:18Z</time>
      </trkpt>
      <trkpt lat="47.92016" lon="7.19169">
        <ele>376.97</ele>
        <time>2014-05-15T08:48:36Z</time>
      </trkpt>
      <trkpt lat="47.92011" lon="7.19169">
        <ele>373.13</ele>
        <time>2014-05-15T08:48:40Z</time>
      </trkpt>
      <trkpt lat="47.9201" lon="7.19169">
        <ele>373.13</ele>
        <time>2014-05-15T08:48:41Z</time>
      </trkpt>
      <trkpt lat="47.92008" lon="7.19171">
        <ele>376.97</ele>
        <time>2014-05-15T08:48:44Z</time>
      </trkpt>
      <trkpt lat="47.92003" lon="7.19168">
        <ele>377.94</ele>
        <time>2014-05-15T08:48:49Z</time>
      </trkpt>
      <trkpt lat="47.91997" lon="7.19167">
        <ele>375.05</ele>
        <time>2014-05-15T08:48:54Z</time>
      </trkpt>
      <trkpt lat="47.91992" lon="7.19163">
        <ele>372.65</ele>
        <time>2014-05-15T08:48:59Z</time>
      </trkpt>
      <trkpt lat="47.91985" lon="7.19159">
        <ele>372.65</ele>
        <time>2014-05-15T08:49:07Z</time>
      </trkpt>
      <trkpt lat="47.91971" lon="7.19154">
        <ele>368.8</ele>
        <time>2014-05-15T08:49:19Z</time>
      </trkpt>
      <trkpt lat="47.9197" lon="7.19153">
        <ele>368.32</ele>
        <time>2014-05-15T08:49:20Z</time>
      </trkpt>
      <trkpt lat="47.91961" lon="7.19149">
        <ele>365.44</ele>
        <time>2014-05-15T08:49:26Z</time>
      </trkpt>
      <trkpt lat="47.91954" lon="7.1915">
        <ele>368.8</ele>
        <time>2014-05-15T08:49:32Z</time>
      </trkpt>
      <trkpt lat="47.91952" lon="7.19151">
        <ele>369.76</ele>
        <time>2014-05-15T08:49:34Z</time>
      </trkpt>
      <trkpt lat="47.91945" lon="7.19152">
        <ele>366.4</ele>
        <time>2014-05-15T08:49:41Z</time>
      </trkpt>
      <trkpt lat="47.91942" lon="7.19153">
        <ele>364.48</ele>
        <time>2014-05-15T08:49:44Z</time>
      </trkpt>
      <trkpt lat="47.91923" lon="7.19161">
        <ele>365.92</ele>
        <time>2014-05-15T08:49:57Z</time>
      </trkpt>
      <trkpt lat="47.91909" lon="7.1917">
        <ele>364</ele>
        <time>2014-05-15T08:50:09Z</time>
      </trkpt>
      <trkpt lat="47.91907" lon="7.19173">
        <ele>363.04</ele>
        <time>2014-05-15T08:50:11Z</time>
      </trkpt>
      <trkpt lat="47.91903" lon="7.19177">
        <ele>365.92</ele>
        <time>2014-05-15T08:50:15Z</time>
      </trkpt>
      <trkpt lat="47.91899" lon="7.1918">
        <ele>364</ele>
        <time>2014-05-15T08:50:20Z</time>
      </trkpt>
      <trkpt lat="47.91893" lon="7.19186">
        <ele>368.32</ele>
        <time>2014-05-15T08:50:25Z</time>
      </trkpt>
      <trkpt lat="47.91892" lon="7.19187">
        <ele>368.32</ele>
        <time>2014-05-15T08:50:26Z</time>
      </trkpt>
      <trkpt lat="47.91886" lon="7.19197">
        <ele>363.52</ele>
        <time>2014-05-15T08:50:32Z</time>
      </trkpt>
      <trkpt lat="47.91885" lon="7.19198">
        <ele>364</ele>
        <time>2014-05-15T08:50:33Z</time>
      </trkpt>
      <trkpt lat="47.91878" lon="7.19208">
        <ele>367.84</ele>
        <time>2014-05-15T08:50:39Z</time>
      </trkpt>
      <trkpt lat="47.91877" lon="7.19209">
        <ele>367.84</ele>
        <time>2014-05-15T08:50:40Z</time>
      </trkpt>
      <trkpt lat="47.91874" lon="7.19216">
        <ele>364.48</ele>
        <time>2014-05-15T08:50:44Z</time>
      </trkpt>
      <trkpt lat="47.91874" lon="7.19217">
        <ele>364.48</ele>
        <time>2014-05-15T08:50:45Z</time>
      </trkpt>
      <trkpt lat="47.91871" lon="7.19227">
        <ele>367.36</ele>
        <time>2014-05-15T08:50:50Z</time>
      </trkpt>
      <trkpt lat="47.9187" lon="7.19229">
        <ele>367.84</ele>
        <time>2014-05-15T08:50:51Z</time>
      </trkpt>
      <trkpt lat="47.91867" lon="7.19235">
        <ele>365.92</ele>
        <time>2014-05-15T08:50:54Z</time>
      </trkpt>
      <trkpt lat="47.91862" lon="7.19247">
        <ele>369.28</ele>
        <time>2014-05-15T08:51:04Z</time>
      </trkpt>
      <trkpt lat="47.9186" lon="7.1926">
        <ele>371.69</ele>
        <time>2014-05-15T08:51:11Z</time>
      </trkpt>
      <trkpt lat="47.91859" lon="7.19263">
        <ele>367.84</ele>
        <time>2014-05-15T08:51:13Z</time>
      </trkpt>
      <trkpt lat="47.91858" lon="7.19265">
        <ele>371.21</ele>
        <time>2014-05-15T08:51:14Z</time>
      </trkpt>
      <trkpt lat="47.91857" lon="7.19267">
        <ele>370.73</ele>
        <time>2014-05-15T08:51:15Z</time>
      </trkpt>
      <trkpt lat="47.91851" lon="7.1927">
        <ele>369.76</ele>
        <time>2014-05-15T08:51:19Z</time>
      </trkpt>
      <trkpt lat="47.91835" lon="7.19279">
        <ele>372.65</ele>
        <time>2014-05-15T08:51:31Z</time>
      </trkpt>
      <trkpt lat="47.91833" lon="7.19279">
        <ele>371.21</ele>
        <time>2014-05-15T08:51:33Z</time>
      </trkpt>
      <trkpt lat="47.91821" lon="7.19283">
        <ele>369.76</ele>
        <time>2014-05-15T08:51:43Z</time>
      </trkpt>
      <trkpt lat="47.91811" lon="7.19283">
        <ele>369.76</ele>
        <time>2014-05-15T08:51:51Z</time>
      </trkpt>
      <trkpt lat="47.91808" lon="7.19283">
        <ele>371.21</ele>
        <time>2014-05-15T08:51:53Z</time>
      </trkpt>
      <trkpt lat="47.91791" lon="7.1929">
        <ele>368.32</ele>
        <time>2014-05-15T08:52:07Z</time>
      </trkpt>
      <trkpt lat="47.91777" lon="7.19295">
        <ele>365.44</ele>
        <time>2014-05-15T08:52:18Z</time>
      </trkpt>
      <trkpt lat="47.91761" lon="7.19299">
        <ele>363.52</ele>
        <time>2014-05-15T08:52:31Z</time>
      </trkpt>
      <trkpt lat="47.91751" lon="7.19303">
        <ele>361.11</ele>
        <time>2014-05-15T08:52:39Z</time>
      </trkpt>
      <trkpt lat="47.91738" lon="7.19306">
        <ele>357.27</ele>
        <time>2014-05-15T08:52:49Z</time>
      </trkpt>
      <trkpt lat="47.91737" lon="7.19307">
        <ele>357.75</ele>
        <time>2014-05-15T08:52:50Z</time>
      </trkpt>
      <trkpt lat="47.91724" lon="7.19314">
        <ele>357.27</ele>
        <time>2014-05-15T08:53:00Z</time>
      </trkpt>
      <trkpt lat="47.91717" lon="7.19314">
        <ele>353.9</ele>
        <time>2014-05-15T08:53:05Z</time>
      </trkpt>
      <trkpt lat="47.91716" lon="7.19314">
        <ele>353.9</ele>
        <time>2014-05-15T08:53:06Z</time>
      </trkpt>
      <trkpt lat="47.91711" lon="7.19313">
        <ele>353.42</ele>
        <time>2014-05-15T08:53:21Z</time>
      </trkpt>
      <trkpt lat="47.91713" lon="7.19311">
        <ele>353.42</ele>
        <time>2014-05-15T09:00:48Z</time>
      </trkpt>
      <trkpt lat="47.91713" lon="7.19311">
        <ele>352.46</ele>
        <time>2014-05-15T09:00:58Z</time>
      </trkpt>
      <trkpt lat="47.91714" lon="7.1931">
        <ele>352.46</ele>
        <time>2014-05-15T09:05:27Z</time>
      </trkpt>
      <trkpt lat="47.91713" lon="7.1931">
        <ele>351.98</ele>
        <time>2014-05-15T09:07:47Z</time>
      </trkpt>
      <trkpt lat="47.91711" lon="7.19317">
        <ele>351.5</ele>
        <time>2014-05-15T09:07:51Z</time>
      </trkpt>
      <trkpt lat="47.91703" lon="7.19322">
        <ele>351.5</ele>
        <time>2014-05-15T09:08:00Z</time>
      </trkpt>
      <trkpt lat="47.91702" lon="7.19322">
        <ele>351.02</ele>
        <time>2014-05-15T09:08:01Z</time>
      </trkpt>
      <trkpt lat="47.91687" lon="7.19327">
        <ele>350.06</ele>
        <time>2014-05-15T09:08:13Z</time>
      </trkpt>
      <trkpt lat="47.9167" lon="7.19329">
        <ele>348.62</ele>
        <time>2014-05-15T09:08:24Z</time>
      </trkpt>
      <trkpt lat="47.91663" lon="7.19333">
        <ele>345.25</ele>
        <time>2014-05-15T09:08:31Z</time>
      </trkpt>
      <trkpt lat="47.91662" lon="7.19335">
        <ele>345.25</ele>
        <time>2014-05-15T09:08:32Z</time>
      </trkpt>
      <trkpt lat="47.91662" lon="7.19336">
        <ele>345.73</ele>
        <time>2014-05-15T09:08:33Z</time>
      </trkpt>
      <trkpt lat="47.9166" lon="7.19342">
        <ele>349.1</ele>
        <time>2014-05-15T09:08:36Z</time>
      </trkpt>
      <trkpt lat="47.9166" lon="7.19344">
        <ele>349.1</ele>
        <time>2014-05-15T09:08:37Z</time>
      </trkpt>
      <trkpt lat="47.91657" lon="7.19353">
        <ele>346.69</ele>
        <time>2014-05-15T09:08:42Z</time>
      </trkpt>
      <trkpt lat="47.91657" lon="7.19358">
        <ele>343.33</ele>
        <time>2014-05-15T09:08:44Z</time>
      </trkpt>
      <trkpt lat="47.91656" lon="7.1938">
        <ele>344.77</ele>
        <time>2014-05-15T09:08:54Z</time>
      </trkpt>
      <trkpt lat="47.91654" lon="7.19386">
        <ele>341.41</ele>
        <time>2014-05-15T09:08:57Z</time>
      </trkpt>
      <trkpt lat="47.91651" lon="7.19396">
        <ele>340.44</ele>
        <time>2014-05-15T09:09:03Z</time>
      </trkpt>
      <trkpt lat="47.9165" lon="7.19401">
        <ele>342.37</ele>
        <time>2014-05-15T09:09:05Z</time>
      </trkpt>
      <trkpt lat="47.91648" lon="7.19421">
        <ele>339</ele>
        <time>2014-05-15T09:09:13Z</time>
      </trkpt>
      <trkpt lat="47.91648" lon="7.19423">
        <ele>338.52</ele>
        <time>2014-05-15T09:09:14Z</time>
      </trkpt>
      <trkpt lat="47.91646" lon="7.19438">
        <ele>341.89</ele>
        <time>2014-05-15T09:09:21Z</time>
      </trkpt>
      <trkpt lat="47.91646" lon="7.1945">
        <ele>338.52</ele>
        <time>2014-05-15T09:09:27Z</time>
      </trkpt>
      <trkpt lat="47.91647" lon="7.19466">
        <ele>338.52</ele>
        <time>2014-05-15T09:09:34Z</time>
      </trkpt>
      <trkpt lat="47.91647" lon="7.19485">
        <ele>334.2</ele>
        <time>2014-05-15T09:09:43Z</time>
      </trkpt>
      <trkpt lat="47.91647" lon="7.19487">
        <ele>334.2</ele>
        <time>2014-05-15T09:09:44Z</time>
      </trkpt>
      <trkpt lat="47.91646" lon="7.19503">
        <ele>338.04</ele>
        <time>2014-05-15T09:09:51Z</time>
      </trkpt>
      <trkpt lat="47.91646" lon="7.1951">
        <ele>334.68</ele>
        <time>2014-05-15T09:09:55Z</time>
      </trkpt>
      <trkpt lat="47.91649" lon="7.1953">
        <ele>333.23</ele>
        <time>2014-05-15T09:10:04Z</time>
      </trkpt>
      <trkpt lat="47.91647" lon="7.19558">
        <ele>331.31</ele>
        <time>2014-05-15T09:10:16Z</time>
      </trkpt>
      <trkpt lat="47.91649" lon="7.19573">
        <ele>330.83</ele>
        <time>2014-05-15T09:10:23Z</time>
      </trkpt>
      <trkpt lat="47.91651" lon="7.19588">
        <ele>329.87</ele>
        <time>2014-05-15T09:10:33Z</time>
      </trkpt>
      <trkpt lat="47.91655" lon="7.19611">
        <ele>328.91</ele>
        <time>2014-05-15T09:10:42Z</time>
      </trkpt>
      <trkpt lat="47.91655" lon="7.19614">
        <ele>328.43</ele>
        <time>2014-05-15T09:10:46Z</time>
      </trkpt>
      <trkpt lat="47.91658" lon="7.19626">
        <ele>327.47</ele>
        <time>2014-05-15T09:10:50Z</time>
      </trkpt>
      <trkpt lat="47.9166" lon="7.19639">
        <ele>327.47</ele>
        <time>2014-05-15T09:10:54Z</time>
      </trkpt>
      <trkpt lat="47.91664" lon="7.19657">
        <ele>325.54</ele>
        <time>2014-05-15T09:11:05Z</time>
      </trkpt>
      <trkpt lat="47.91666" lon="7.19666">
        <ele>325.06</ele>
        <time>2014-05-15T09:11:09Z</time>
      </trkpt>
    </trkseg>
  </trk>
</gpx>